Home > Products > Valid Products > TAF

000
FTUS41 KBOX 012130 AAB
TAFACK
TAF AMD
KACK 012130Z 0122/0218 22006KT P6SM FEW003
     FM020200 23007KT 3SM BR BKN003
     FM021700 21008KT P6SM SCT001=



000
FTUS41 KBOX 012130 AAB
TAFACK
TAF AMD
KACK 012130Z 0122/0218 22006KT P6SM FEW003
     FM020200 23007KT 3SM BR BKN003
     FM021700 21008KT P6SM SCT001=



000
FTUS41 KBOX 012029 AAA
TAFMHT
TAF AMD
KMHT 012029Z 0120/0218 22004KT P6SM SCT050
     FM020900 VRB03KT P6SM BKN050
     FM021200 VRB03KT P6SM BKN015
     FM021500 21005KT P6SM SCT250=



000
FTUS41 KBOX 012029 AAA
TAFMHT
TAF AMD
KMHT 012029Z 0120/0218 22004KT P6SM SCT050
     FM020900 VRB03KT P6SM BKN050
     FM021200 VRB03KT P6SM BKN015
     FM021500 21005KT P6SM SCT250=



000
FTUS41 KBOX 012029 AAA
TAFPVD
TAF AMD
KPVD 012029Z 0120/0218 21006KT P6SM SCT050
     FM020600 22004KT P6SM BKN010
     FM021200 VRB03KT P6SM BKN003
     FM021500 21006KT P6SM SCT250=



000
FTUS41 KBOX 012029 AAA
TAFPVD
TAF AMD
KPVD 012029Z 0120/0218 21006KT P6SM SCT050
     FM020600 22004KT P6SM BKN010
     FM021200 VRB03KT P6SM BKN003
     FM021500 21006KT P6SM SCT250=



000
FTUS41 KBOX 012028 AAA
TAFBDL
TAF AMD
KBDL 012028Z 0120/0224 22005KT P6SM SCT050
     FM021200 VRB03KT P6SM SCT008
     FM021500 21005KT P6SM FEW250=



000
FTUS41 KBOX 012028 AAA
TAFBOS
TAF AMD
KBOS 012028Z 0120/0224 13007KT P6SM SCT040 BKN250
     FM012200 18005KT P6SM SCT050
     FM020900 22005KT P6SM BKN090
     FM021600 20006KT P6SM SCT250=



000
FTUS41 KBOX 012028 AAA
TAFBOS
TAF AMD
KBOS 012028Z 0120/0224 13007KT P6SM SCT040 BKN250
     FM012200 18005KT P6SM SCT050
     FM020900 22005KT P6SM BKN090
     FM021600 20006KT P6SM SCT250=



000
FTUS41 KBOX 011903 AAA
TAFACK
TAF AMD
KACK 011903Z 0119/0218 23008KT P6SM FEW010
     FM012100 23008KT P6SM VCTS BKN003CB
     FM020200 23007KT 3SM BR BKN003
     FM021700 21008KT P6SM SCT001=



000
FTUS41 KBOX 011903 AAA
TAFACK
TAF AMD
KACK 011903Z 0119/0218 23008KT P6SM FEW010
     FM012100 23008KT P6SM VCTS BKN003CB
     FM020200 23007KT 3SM BR BKN003
     FM021700 21008KT P6SM SCT001=



000
FTUS41 KBOX 011727
TAFBOS
TAF
KBOS 011727Z 0118/0224 13007KT P6SM SCT040 BKN250
     FM012200 18005KT P6SM SCT050
     FM020900 22005KT P6SM BKN090
     FM021600 20006KT P6SM SCT250=



000
FTUS41 KBOX 011727
TAFBDL
TAF
KBDL 011727Z 0118/0224 17005KT P6SM VCTS BKN050CB
     FM012000 22005KT P6SM BKN050
     FM021200 VRB03KT P6SM SCT008
     FM021500 21005KT P6SM FEW250=



000
FTUS41 KBOX 011727
TAFBAF
TAF
KBAF 011727Z 0118/0218 18008KT P6SM BKN050
     FM020000 VRB03KT P6SM SCT250
     FM020900 00000KT P6SM BKN025
     FM021200 00000KT P6SM BKN003
     FM021500 21005KT P6SM FEW250=



000
FTUS41 KBOX 011727
TAFPVD
TAF
KPVD 011727Z 0118/0218 15010KT P6SM VCTS BKN050CB
     FM012200 21006KT P6SM BKN050
     FM020600 22004KT P6SM BKN010
     FM021200 VRB03KT P6SM BKN003
     FM021500 21006KT P6SM SCT250=



000
FTUS41 KBOX 011727
TAFMHT
TAF
KMHT 011727Z 0118/0218 14004KT P6SM BKN050
     FM012100 22004KT P6SM SCT250
     FM020900 VRB03KT P6SM BKN050
     FM021200 VRB03KT P6SM BKN015
     FM021500 21005KT P6SM SCT250=



000
FTUS41 KBOX 011727
TAFACK
TAF
KACK 011727Z 0118/0218 23008KT P6SM FEW010
     FM011900 23008KT P6SM VCTS BKN003CB
     FM020200 23007KT 3SM BR BKN003
     FM021700 21008KT P6SM SCT001=



000
FTUS41 KBOX 011727
TAFORH
TAF
KORH 011727Z 0118/0218 25005KT P6SM BKN050
     FM012100 23005KT P6SM SCT250
     FM020700 24006KT P6SM BKN080
     FM020900 24006KT P6SM BKN025
     FM021200 24005KT P6SM BKN003
     FM021500 23006KT P6SM SCT250=



000
FTUS41 KBOX 011727
TAFORH
TAF
KORH 011727Z 0118/0218 25005KT P6SM BKN050
     FM012100 23005KT P6SM SCT250
     FM020700 24006KT P6SM BKN080
     FM020900 24006KT P6SM BKN025
     FM021200 24005KT P6SM BKN003
     FM021500 23006KT P6SM SCT250=



000
FTUS41 KBOX 011727
TAFBDL
TAF
KBDL 011727Z 0118/0224 17005KT P6SM VCTS BKN050CB
     FM012000 22005KT P6SM BKN050
     FM021200 VRB03KT P6SM SCT008
     FM021500 21005KT P6SM FEW250=



000
FTUS41 KBOX 011727
TAFPVD
TAF
KPVD 011727Z 0118/0218 15010KT P6SM VCTS BKN050CB
     FM012200 21006KT P6SM BKN050
     FM020600 22004KT P6SM BKN010
     FM021200 VRB03KT P6SM BKN003
     FM021500 21006KT P6SM SCT250=



000
FTUS41 KBOX 011727
TAFBOS
TAF
KBOS 011727Z 0118/0224 13007KT P6SM SCT040 BKN250
     FM012200 18005KT P6SM SCT050
     FM020900 22005KT P6SM BKN090
     FM021600 20006KT P6SM SCT250=



000
FTUS41 KBOX 011727
TAFMHT
TAF
KMHT 011727Z 0118/0218 14004KT P6SM BKN050
     FM012100 22004KT P6SM SCT250
     FM020900 VRB03KT P6SM BKN050
     FM021200 VRB03KT P6SM BKN015
     FM021500 21005KT P6SM SCT250=



000
FTUS41 KBOX 011727
TAFBAF
TAF
KBAF 011727Z 0118/0218 18008KT P6SM BKN050
     FM020000 VRB03KT P6SM SCT250
     FM020900 00000KT P6SM BKN025
     FM021200 00000KT P6SM BKN003
     FM021500 21005KT P6SM FEW250=



000
FTUS41 KBOX 011727
TAFACK
TAF
KACK 011727Z 0118/0218 23008KT P6SM FEW010
     FM011900 23008KT P6SM VCTS BKN003CB
     FM020200 23007KT 3SM BR BKN003
     FM021700 21008KT P6SM SCT001=



000
FTUS41 KBOX 011519 AAA
TAFPVD
TAF AMD
KPVD 011519Z 0115/0212 16005KT P6SM BKN250
     FM011900 22007KT P6SM VCTS BKN045CB
     FM020000 21006KT P6SM BKN045
     FM020400 22005KT P6SM BKN030
     FM020600 23004KT 3SM BR BKN020
     FM020900 23004KT 1SM BR BKN003=



000
FTUS41 KBOX 011519 AAA
TAFPVD
TAF AMD
KPVD 011519Z 0115/0212 16005KT P6SM BKN250
     FM011900 22007KT P6SM VCTS BKN045CB
     FM020000 21006KT P6SM BKN045
     FM020400 22005KT P6SM BKN030
     FM020600 23004KT 3SM BR BKN020
     FM020900 23004KT 1SM BR BKN003=



000
FTUS41 KBOX 011519 AAB
TAFMHT
TAF AMD
KMHT 011519Z 0115/0212 30004KT P6SM SCT150
     FM012200 21004KT P6SM SCT120
     FM020500 00000KT P6SM SCT100
     FM020800 00000KT 5SM BR SCT100
     FM021000 00000KT 5SM BR SCT003 BKN100=



000
FTUS41 KBOX 011519 AAB
TAFMHT
TAF AMD
KMHT 011519Z 0115/0212 30004KT P6SM SCT150
     FM012200 21004KT P6SM SCT120
     FM020500 00000KT P6SM SCT100
     FM020800 00000KT 5SM BR SCT100
     FM021000 00000KT 5SM BR SCT003 BKN100=



000
FTUS41 KBOX 011518 AAA
TAFBDL
TAF AMD
KBDL 011518Z 0115/0218 22004KT P6SM SCT050 SCT250
     FM011800 22005KT P6SM VCTS BKN060CB
     FM012300 20005KT P6SM BKN045
     FM020600 VRB03KT 3SM BR BKN060
     FM021100 00000KT 3SM BR BKN003
     FM021300 VRB03KT P6SM BKN080=



000
FTUS41 KBOX 011518 AAA
TAFBDL
TAF AMD
KBDL 011518Z 0115/0218 22004KT P6SM SCT050 SCT250
     FM011800 22005KT P6SM VCTS BKN060CB
     FM012300 20005KT P6SM BKN045
     FM020600 VRB03KT 3SM BR BKN060
     FM021100 00000KT 3SM BR BKN003
     FM021300 VRB03KT P6SM BKN080=



000
FTUS41 KBOX 011515 AAA
TAFBOS
TAF AMD
KBOS 011515Z 0115/0218 24007KT P6SM SCT050 BKN250
     FM011700 21006KT P6SM BKN060
     FM020900 23005KT 5SM BR BKN070
     FM021200 24004KT 2SM BR BKN250
     FM021500 21006KT P6SM BKN040
     FM021600 20006KT P6SM SCT040=



000
FTUS41 KBOX 011515 AAA
TAFBOS
TAF AMD
KBOS 011515Z 0115/0218 24007KT P6SM SCT050 BKN250
     FM011700 21006KT P6SM BKN060
     FM020900 23005KT 5SM BR BKN070
     FM021200 24004KT 2SM BR BKN250
     FM021500 21006KT P6SM BKN040
     FM021600 20006KT P6SM SCT040=



000
FTUS41 KBOX 011202 AAA
TAFBAF
TAF AMD
KBAF 011202Z 0112/0212 00000KT P6SM BKN003
     FM011400 VRB03KT P6SM SCT003 BKN025
     FM011600 25004KT P6SM BKN040
     FM012000 21004KT P6SM VCTS BKN050CB
     FM012200 21004KT P6SM BKN045
     FM020400 00000KT 6SM BR BKN025
     FM020600 00000KT 3SM BR BKN003=



000
FTUS41 KBOX 011201 AAA
TAFMHT
TAF AMD
KMHT 011201Z 0112/0212 VRB03KT P6SM SCT250
     FM011400 27004KT P6SM BKN150
     FM012200 21004KT P6SM SCT120
     FM020500 00000KT P6SM SCT100
     FM020800 00000KT 5SM BR SCT100
     FM021000 00000KT 5SM BR SCT003 BKN100=



000
FTUS41 KBOX 011201 AAA
TAFMHT
TAF AMD
KMHT 011201Z 0112/0212 VRB03KT P6SM SCT250
     FM011400 27004KT P6SM BKN150
     FM012200 21004KT P6SM SCT120
     FM020500 00000KT P6SM SCT100
     FM020800 00000KT 5SM BR SCT100
     FM021000 00000KT 5SM BR SCT003 BKN100=



000
FTUS41 KBOX 011138
TAFBAF
TAF
KBAF 011138Z 0112/0212 00000KT 6SM BR BKN002
     FM011400 VRB03KT P6SM SCT002 BKN025
     FM011600 25004KT P6SM BKN040
     FM012000 21004KT P6SM VCTS BKN050CB
     FM012200 21004KT P6SM BKN045
     FM020400 00000KT 6SM BR BKN025
     FM020600 00000KT 3SM BR BKN003=



000
FTUS41 KBOX 011138
TAFBOS
TAF
KBOS 011138Z 0112/0218 26006KT P6SM FEW012 BKN200
     FM011400 24007KT P6SM SCT050 BKN250
     FM011700 21006KT P6SM BKN060
     FM020900 23005KT 5SM BR BKN070
     FM021200 24004KT 2SM BR BKN250
     FM021500 21006KT P6SM BKN040
     FM021600 20006KT P6SM SCT040=



000
FTUS41 KBOX 011138
TAFACK
TAF
KACK 011138Z 0112/0212 24011KT 3SM BR BKN005 OVC035
     FM011400 23008KT 5SM BR OVC035
     FM011600 23009KT P6SM VCTS OVC010CB
     FM011700 23009KT P6SM VCTS OVC003CB
     FM020000 22008KT 3SM BR BKN003
     FM020600 23007KT 1/4SM FG OVC003=



000
FTUS41 KBOX 011138
TAFORH
TAF
KORH 011138Z 0112/0212 27005KT P6SM BKN120
     FM011400 27006KT P6SM SCT008 BKN050
     FM011600 26006KT P6SM BKN040
     FM020600 24006KT 3SM BR BKN050
     FM020900 24006KT 5SM BR BKN250=



000
FTUS41 KBOX 011138
TAFBDL
TAF
KBDL 011138Z 0112/0218 00000KT P6SM FEW005 BKN140
     FM011400 22004KT P6SM SCT050 BKN150
     FM011800 22005KT P6SM VCTS BKN060CB
     FM012300 20005KT P6SM BKN045
     FM020600 VRB03KT 3SM BR BKN060
     FM021100 00000KT 3SM BR BKN003
     FM021300 VRB03KT P6SM BKN080=



000
FTUS41 KBOX 011138
TAFBDL
TAF
KBDL 011138Z 0112/0218 00000KT P6SM FEW005 BKN140
     FM011400 22004KT P6SM SCT050 BKN150
     FM011800 22005KT P6SM VCTS BKN060CB
     FM012300 20005KT P6SM BKN045
     FM020600 VRB03KT 3SM BR BKN060
     FM021100 00000KT 3SM BR BKN003
     FM021300 VRB03KT P6SM BKN080=



000
FTUS41 KBOX 011138
TAFBOS
TAF
KBOS 011138Z 0112/0218 26006KT P6SM FEW012 BKN200
     FM011400 24007KT P6SM SCT050 BKN250
     FM011700 21006KT P6SM BKN060
     FM020900 23005KT 5SM BR BKN070
     FM021200 24004KT 2SM BR BKN250
     FM021500 21006KT P6SM BKN040
     FM021600 20006KT P6SM SCT040=



000
FTUS41 KBOX 011138
TAFORH
TAF
KORH 011138Z 0112/0212 27005KT P6SM BKN120
     FM011400 27006KT P6SM SCT008 BKN050
     FM011600 26006KT P6SM BKN040
     FM020600 24006KT 3SM BR BKN050
     FM020900 24006KT 5SM BR BKN250=



000
FTUS41 KBOX 011138
TAFBAF
TAF
KBAF 011138Z 0112/0212 00000KT 6SM BR BKN002
     FM011400 VRB03KT P6SM SCT002 BKN025
     FM011600 25004KT P6SM BKN040
     FM012000 21004KT P6SM VCTS BKN050CB
     FM012200 21004KT P6SM BKN045
     FM020400 00000KT 6SM BR BKN025
     FM020600 00000KT 3SM BR BKN003=



000
FTUS41 KBOX 011138
TAFPVD
TAF
KPVD 011138Z 0112/0212 22004KT 4SM BR BKN120
     FM011400 24005KT P6SM OVC090
     FM011900 22007KT P6SM VCTS BKN045CB
     FM020000 21006KT P6SM BKN045
     FM020400 22005KT P6SM BKN030
     FM020600 23004KT 3SM BR BKN020
     FM020800 23004KT 3SM BR BKN008
     FM020900 23004KT 1SM BR BKN003=



000
FTUS41 KBOX 011138
TAFACK
TAF
KACK 011138Z 0112/0212 24011KT 3SM BR BKN005 OVC035
     FM011400 23008KT 5SM BR OVC035
     FM011600 23009KT P6SM VCTS OVC010CB
     FM011700 23009KT P6SM VCTS OVC003CB
     FM020000 22008KT 3SM BR BKN003
     FM020600 23007KT 1/4SM FG OVC003=



000
FTUS41 KBOX 011138
TAFMHT
TAF
KMHT 011138Z 0112/0212 VRB03KT 1 1/2SM BR FEW003 BKN150
     FM011300 27004KT P6SM BKN150
     FM012200 21004KT P6SM SCT120
     FM020500 00000KT P6SM SCT100
     FM020800 00000KT 5SM BR SCT100
     FM021000 00000KT 5SM BR SCT003 BKN100=



000
FTUS41 KBOX 011138
TAFMHT
TAF
KMHT 011138Z 0112/0212 VRB03KT 1 1/2SM BR FEW003 BKN150
     FM011300 27004KT P6SM BKN150
     FM012200 21004KT P6SM SCT120
     FM020500 00000KT P6SM SCT100
     FM020800 00000KT 5SM BR SCT100
     FM021000 00000KT 5SM BR SCT003 BKN100=



000
FTUS41 KBOX 011138
TAFPVD
TAF
KPVD 011138Z 0112/0212 22004KT 4SM BR BKN120
     FM011400 24005KT P6SM OVC090
     FM011900 22007KT P6SM VCTS BKN045CB
     FM020000 21006KT P6SM BKN045
     FM020400 22005KT P6SM BKN030
     FM020600 23004KT 3SM BR BKN020
     FM020800 23004KT 3SM BR BKN008
     FM020900 23004KT 1SM BR BKN003=



000
FTUS41 KBOX 010957 AAB
TAFMHT
TAF AMD
KMHT 010957Z 0110/0206 VRB03KT 1 1/2SM BR SCT003 BKN120
     FM011100 25004KT P6SM SCT005 BKN120
     FM011300 26004KT P6SM BKN200
     FM012200 20004KT P6SM SCT150
     FM020500 00000KT P6SM SCT130=



000
FTUS41 KBOX 010957 AAB
TAFMHT
TAF AMD
KMHT 010957Z 0110/0206 VRB03KT 1 1/2SM BR SCT003 BKN120
     FM011100 25004KT P6SM SCT005 BKN120
     FM011300 26004KT P6SM BKN200
     FM012200 20004KT P6SM SCT150
     FM020500 00000KT P6SM SCT130=



000
FTUS41 KBOX 010911 AAA
TAFACK
TAF AMD
KACK 010911Z 0109/0206 22014KT 5SM BR OVC007
     FM011600 23010KT P6SM BKN003
     FM011800 22009KT P6SM SCT003 BKN100
     FM020000 23007KT 1/2SM FG OVC002=



000
FTUS41 KBOX 010909 AAA
TAFPVD
TAF AMD
KPVD 010909Z 0109/0206 23006KT 6SM BR BKN100
     FM011200 25005KT P6SM BKN040
     FM012200 20008KT P6SM BKN250=



000
FTUS41 KBOX 010909 AAA
TAFMHT
TAF AMD
KMHT 010909Z 0109/0206 21004KT P6SM SCT005 BKN100
     FM011300 26004KT P6SM BKN200
     FM012200 20004KT P6SM SCT150
     FM020500 00000KT P6SM SCT130=



000
FTUS41 KBOX 010909 AAA
TAFMHT
TAF AMD
KMHT 010909Z 0109/0206 21004KT P6SM SCT005 BKN100
     FM011300 26004KT P6SM BKN200
     FM012200 20004KT P6SM SCT150
     FM020500 00000KT P6SM SCT130=



000
FTUS41 KBOX 010909 AAA
TAFPVD
TAF AMD
KPVD 010909Z 0109/0206 23006KT 6SM BR BKN100
     FM011200 25005KT P6SM BKN040
     FM012200 20008KT P6SM BKN250=



000
FTUS41 KBOX 010908 AAA
TAFBDL
TAF AMD
KBDL 010908Z 0109/0212 VRB03KT P6SM BKN070
     FM011200 00000KT P6SM BKN060
     FM020400 VRB03KT 3SM BR BKN060
     FM020800 00000KT 3SM BR BKN003=



000
FTUS41 KBOX 010908 AAA
TAFBDL
TAF AMD
KBDL 010908Z 0109/0212 VRB03KT P6SM BKN070
     FM011200 00000KT P6SM BKN060
     FM020400 VRB03KT 3SM BR BKN060
     FM020800 00000KT 3SM BR BKN003=



000
FTUS41 KBOX 010908 AAA
TAFBOS
TAF AMD
KBOS 010908Z 0109/0212 24007KT P6SM BKN090
     FM011200 25006KT P6SM BKN090
     FM011600 20006KT P6SM BKN070
     FM020500 23005KT 5SM BR BKN070=



000
FTUS41 KBOX 010908 AAA
TAFBOS
TAF AMD
KBOS 010908Z 0109/0212 24007KT P6SM BKN090
     FM011200 25006KT P6SM BKN090
     FM011600 20006KT P6SM BKN070
     FM020500 23005KT 5SM BR BKN070=



000
FTUS41 KBOX 010527
TAFBOS
TAF
KBOS 010527Z 0106/0212 24008KT P6SM SCT010 OVC100
     FM010800 24007KT 4SM BR BKN090
     FM011200 25006KT P6SM BKN090
     FM011600 20006KT P6SM BKN070
     FM020500 23005KT 5SM BR BKN070=



000
FTUS41 KBOX 010527
TAFMHT
TAF
KMHT 010527Z 0106/0206 19004KT P6SM BKN005
     FM010900 25004KT 3SM BR BKN005
     FM011300 26004KT P6SM BKN200
     FM012200 20004KT P6SM SCT150
     FM020500 00000KT P6SM SCT130=



000
FTUS41 KBOX 010527
TAFACK
TAF
KACK 010527Z 0106/0206 22014KT 5SM BR FEW015 OVC045
     FM010800 23013KT 2SM BR VCSH OVC003
     FM011600 23010KT P6SM BKN003
     FM011800 22009KT P6SM SCT003 BKN100
     FM020000 23007KT 1/2SM FG OVC002=



000
FTUS41 KBOX 010527
TAFPVD
TAF
KPVD 010527Z 0106/0206 00000KT P6SM SCT010
     FM010900 00000KT 2SM BR OVC008
     FM011300 25005KT P6SM BKN040
     FM012200 20008KT P6SM BKN250=



000
FTUS41 KBOX 010527
TAFORH
TAF
KORH 010527Z 0106/0206 25009KT P6SM OVC004
     FM010900 26008KT 4SM BR OVC002
     FM011300 27006KT P6SM BKN040
     FM020000 26004KT P6SM SCT250=



000
FTUS41 KBOX 010527
TAFBDL
TAF
KBDL 010527Z 0106/0212 VRB03KT P6SM BKN100
     FM010800 VRB03KT 5SM BR BKN070
     FM011200 00000KT P6SM BKN060
     FM020400 VRB03KT 3SM BR BKN060
     FM020800 00000KT 3SM BR BKN003=



000
FTUS41 KBOX 010527
TAFBAF
TAF
KBAF 010527Z 0106/0206 VRB03KT P6SM SCT002
     FM010800 00000KT 1/2SM FG OVC002
     FM011100 VRB03KT 3SM BR BKN020
     FM011400 VRB03KT P6SM BKN050
     FM020500 00000KT 6SM BR BKN012=



000
FTUS41 KBOX 010527
TAFMHT
TAF
KMHT 010527Z 0106/0206 19004KT P6SM BKN005
     FM010900 25004KT 3SM BR BKN005
     FM011300 26004KT P6SM BKN200
     FM012200 20004KT P6SM SCT150
     FM020500 00000KT P6SM SCT130=



000
FTUS41 KBOX 010527
TAFBOS
TAF
KBOS 010527Z 0106/0212 24008KT P6SM SCT010 OVC100
     FM010800 24007KT 4SM BR BKN090
     FM011200 25006KT P6SM BKN090
     FM011600 20006KT P6SM BKN070
     FM020500 23005KT 5SM BR BKN070=



000
FTUS41 KBOX 010527
TAFPVD
TAF
KPVD 010527Z 0106/0206 00000KT P6SM SCT010
     FM010900 00000KT 2SM BR OVC008
     FM011300 25005KT P6SM BKN040
     FM012200 20008KT P6SM BKN250=



000
FTUS41 KBOX 010527
TAFORH
TAF
KORH 010527Z 0106/0206 25009KT P6SM OVC004
     FM010900 26008KT 4SM BR OVC002
     FM011300 27006KT P6SM BKN040
     FM020000 26004KT P6SM SCT250=



000
FTUS41 KBOX 010527
TAFBDL
TAF
KBDL 010527Z 0106/0212 VRB03KT P6SM BKN100
     FM010800 VRB03KT 5SM BR BKN070
     FM011200 00000KT P6SM BKN060
     FM020400 VRB03KT 3SM BR BKN060
     FM020800 00000KT 3SM BR BKN003=



000
FTUS41 KBOX 010527
TAFBAF
TAF
KBAF 010527Z 0106/0206 VRB03KT P6SM SCT002
     FM010800 00000KT 1/2SM FG OVC002
     FM011100 VRB03KT 3SM BR BKN020
     FM011400 VRB03KT P6SM BKN050
     FM020500 00000KT 6SM BR BKN012=



000
FTUS41 KBOX 010527
TAFACK
TAF
KACK 010527Z 0106/0206 22014KT 5SM BR FEW015 OVC045
     FM010800 23013KT 2SM BR VCSH OVC003
     FM011600 23010KT P6SM BKN003
     FM011800 22009KT P6SM SCT003 BKN100
     FM020000 23007KT 1/2SM FG OVC002=



000
FTUS41 KBOX 010259 AAA
TAFBAF
TAF AMD
KBAF 010259Z 0103/0124 00000KT 1/2SM FG OVC002
     FM011200 00000KT 2SM BR BKN015
     FM011400 VRB03KT P6SM BKN025
     FM011800 22005KT P6SM BKN050=



000
FTUS41 KBOX 010259 AAA
TAFBAF
TAF AMD
KBAF 010259Z 0103/0124 00000KT 1/2SM FG OVC002
     FM011200 00000KT 2SM BR BKN015
     FM011400 VRB03KT P6SM BKN025
     FM011800 22005KT P6SM BKN050=



000
FTUS41 KBOX 010210 AAB
TAFPVD
TAF AMD
KPVD 010210Z 0102/0124 21010KT 5SM -SHRA BR OVC050
     FM010330 21005KT P6SM OVC050
     FM010900 23004KT 3SM BR OVC003
     FM011500 26004KT 3SM BR BKN008
     FM011800 22007KT P6SM BKN015
     FM012100 20008KT P6SM BKN030=



000
FTUS41 KBOX 010210 AAB
TAFPVD
TAF AMD
KPVD 010210Z 0102/0124 21010KT 5SM -SHRA BR OVC050
     FM010330 21005KT P6SM OVC050
     FM010900 23004KT 3SM BR OVC003
     FM011500 26004KT 3SM BR BKN008
     FM011800 22007KT P6SM BKN015
     FM012100 20008KT P6SM BKN030=



000
FTUS41 KBOX 010208 AAC
TAFORH
TAF AMD
KORH 010208Z 0102/0124 23005KT P6SM BKN006
     FM010800 26006KT 3SM BR BKN003
     FM011500 27005KT P6SM BKN015
     FM012100 23008KT P6SM BKN250=



000
FTUS41 KBOX 010208 AAC
TAFORH
TAF AMD
KORH 010208Z 0102/0124 23005KT P6SM BKN006
     FM010800 26006KT 3SM BR BKN003
     FM011500 27005KT P6SM BKN015
     FM012100 23008KT P6SM BKN250=



000
FTUS41 KBOX 010134 AAA
TAFACK
TAF AMD
KACK 010134Z 0102/0124 19011KT 4SM BR OVC003
     FM010400 22014KT 2SM -SHRA BR OVC003
     FM010700 22014KT 3SM BR OVC003
     FM012300 22009KT 3SM BR BKN003=



000
FTUS41 KBOX 010134 AAA
TAFACK
TAF AMD
KACK 010134Z 0102/0124 19011KT 4SM BR OVC003
     FM010400 22014KT 2SM -SHRA BR OVC003
     FM010700 22014KT 3SM BR OVC003
     FM012300 22009KT 3SM BR BKN003=



000
FTUS41 KBOX 010133 AAA
TAFPVD
TAF AMD
KPVD 010133Z 0102/0124 21010KT 2SM +SHRA BR BKN012 BKN025 OVC040
     FM010300 21010KT 3SM BR OVC010
     FM010900 23004KT 3SM BR OVC003
     FM011500 26004KT 3SM BR BKN008
     FM011800 22007KT P6SM BKN015
     FM012100 20008KT P6SM BKN030=



000
FTUS41 KBOX 010133 AAA
TAFPVD
TAF AMD
KPVD 010133Z 0102/0124 21010KT 2SM +SHRA BR BKN012 BKN025 OVC040
     FM010300 21010KT 3SM BR OVC010
     FM010900 23004KT 3SM BR OVC003
     FM011500 26004KT 3SM BR BKN008
     FM011800 22007KT P6SM BKN015
     FM012100 20008KT P6SM BKN030=



000
FTUS41 KBOX 010130 AAA
TAFBOS
TAF AMD
KBOS 010130Z 0102/0206 20009KT 2SM -TSRA BR BKN015CB
     FM010300 23009KT 3SM BR OVC025
     FM011500 27005KT P6SM BKN025
     FM011800 20007KT P6SM BKN050=



000
FTUS41 KBOX 010059 AAB
TAFORH
TAF AMD
KORH 010059Z 0101/0124 25005KT P6SM BKN035
     FM010500 24008KT 3SM BR OVC030
     FM010900 26006KT 3SM BR BKN003
     FM011500 27005KT P6SM BKN015
     FM012100 23008KT P6SM BKN250=



000
FTUS41 KBOX 010059 AAB
TAFORH
TAF AMD
KORH 010059Z 0101/0124 25005KT P6SM BKN035
     FM010500 24008KT 3SM BR OVC030
     FM010900 26006KT 3SM BR BKN003
     FM011500 27005KT P6SM BKN015
     FM012100 23008KT P6SM BKN250=



000
FTUS41 KBOX 312346 AAA
TAFORH
TAF AMD
KORH 312346Z 0100/0124 25005KT 1 1/2SM +TSRA BR BKN007CB BKN028
     FM010200 23008KT 6SM BR OVC030
     FM010500 24008KT 3SM BR OVC030
     FM010900 26006KT 3SM BR BKN003
     FM011500 27005KT P6SM BKN015
     FM012100 23008KT P6SM BKN250=



000
FTUS41 KBOX 312346 AAA
TAFORH
TAF AMD
KORH 312346Z 0100/0124 25005KT 1 1/2SM +TSRA BR BKN007CB BKN028
     FM010200 23008KT 6SM BR OVC030
     FM010500 24008KT 3SM BR OVC030
     FM010900 26006KT 3SM BR BKN003
     FM011500 27005KT P6SM BKN015
     FM012100 23008KT P6SM BKN250=



000
FTUS41 KBOX 312321
TAFACK
TAF
KACK 312321Z 0100/0124 19010KT 5SM BR FEW009
     FM010100 21014KT 5SM BR BKN008
     FM010400 22014KT 2SM -SHRA BR OVC003
     FM010700 22014KT 3SM BR OVC003
     FM012300 22009KT 3SM BR BKN003=



000
FTUS41 KBOX 312321
TAFBOS
TAF
KBOS 312321Z 0100/0206 20010KT P6SM FEW120 BKN150 OVC200
     FM010100 22010KT 6SM -SHRA VCTS OVC080CB
     FM010400 23009KT 3SM BR OVC025
     FM011500 27005KT P6SM BKN025
     FM011800 20007KT P6SM BKN050=



000
FTUS41 KBOX 312321
TAFPVD
TAF
KPVD 312321Z 0100/0124 19011KT P6SM -SHRA BKN010 BKN035 OVC200
     FM010200 21008KT 3SM BR OVC010
     FM010900 23004KT 3SM BR OVC003
     FM011500 26004KT 3SM BR BKN008
     FM011800 22007KT P6SM BKN015
     FM012100 20008KT P6SM BKN030=



000
FTUS41 KBOX 312321
TAFBDL
TAF
KBDL 312321Z 0100/0206 19010KT P6SM SHRA SCT019 BKN030
     FM010100 19006KT P6SM OVC080
     FM010400 20005KT 4SM BR OVC050
     FM011100 VRB03KT 2SM BR BKN015
     FM011400 VRB03KT P6SM BKN015
     FM011800 21006KT P6SM BKN050
     FM020000 20004KT P6SM BKN030=



000
FTUS41 KBOX 312321
TAFACK
TAF
KACK 312321Z 0100/0124 19010KT 5SM BR FEW009
     FM010100 21014KT 5SM BR BKN008
     FM010400 22014KT 2SM -SHRA BR OVC003
     FM010700 22014KT 3SM BR OVC003
     FM012300 22009KT 3SM BR BKN003=



000
FTUS41 KBOX 312321
TAFORH
TAF
KORH 312321Z 0100/0124 22008KT 4SM -SHRA OVC050
     FM010200 23008KT 6SM BR OVC030
     FM010500 24008KT 3SM BR OVC030
     FM010900 26006KT 3SM BR BKN003
     FM011500 27005KT P6SM BKN015
     FM012100 23008KT P6SM BKN250=



000
FTUS41 KBOX 312321
TAFBAF
TAF
KBAF 312321Z 0100/0124 19004KT P6SM -SHRA SCT060 BKN110
     FM010400 21004KT 3SM BR OVC050
     FM011200 00000KT 2SM BR BKN015
     FM011400 VRB03KT P6SM BKN025
     FM011800 22005KT P6SM BKN050=



000
FTUS41 KBOX 312321
TAFMHT
TAF
KMHT 312321Z 0100/0124 16005KT P6SM -SHRA SCT080 OVC100
     FM010200 22005KT P6SM +SHRA VCTS OVC080CB
     FM010300 21005KT P6SM -SHRA OVC060
     FM010400 22004KT P6SM OVC060
     FM010800 00000KT P6SM BKN090
     FM011500 27004KT P6SM BKN050
     FM011700 25005KT P6SM SCT250=



000
FTUS41 KBOX 312321
TAFMHT
TAF
KMHT 312321Z 0100/0124 16005KT P6SM -SHRA SCT080 OVC100
     FM010200 22005KT P6SM +SHRA VCTS OVC080CB
     FM010300 21005KT P6SM -SHRA OVC060
     FM010400 22004KT P6SM OVC060
     FM010800 00000KT P6SM BKN090
     FM011500 27004KT P6SM BKN050
     FM011700 25005KT P6SM SCT250=



000
FTUS41 KBOX 312321
TAFORH
TAF
KORH 312321Z 0100/0124 22008KT 4SM -SHRA OVC050
     FM010200 23008KT 6SM BR OVC030
     FM010500 24008KT 3SM BR OVC030
     FM010900 26006KT 3SM BR BKN003
     FM011500 27005KT P6SM BKN015
     FM012100 23008KT P6SM BKN250=



000
FTUS41 KBOX 312321
TAFBOS
TAF
KBOS 312321Z 0100/0206 20010KT P6SM FEW120 BKN150 OVC200
     FM010100 22010KT 6SM -SHRA VCTS OVC080CB
     FM010400 23009KT 3SM BR OVC025
     FM011500 27005KT P6SM BKN025
     FM011800 20007KT P6SM BKN050=



000
FTUS41 KBOX 312321
TAFBAF
TAF
KBAF 312321Z 0100/0124 19004KT P6SM -SHRA SCT060 BKN110
     FM010400 21004KT 3SM BR OVC050
     FM011200 00000KT 2SM BR BKN015
     FM011400 VRB03KT P6SM BKN025
     FM011800 22005KT P6SM BKN050=



000
FTUS41 KBOX 312321
TAFPVD
TAF
KPVD 312321Z 0100/0124 19011KT P6SM -SHRA BKN010 BKN035 OVC200
     FM010200 21008KT 3SM BR OVC010
     FM010900 23004KT 3SM BR OVC003
     FM011500 26004KT 3SM BR BKN008
     FM011800 22007KT P6SM BKN015
     FM012100 20008KT P6SM BKN030=



000
FTUS41 KBOX 312321
TAFBDL
TAF
KBDL 312321Z 0100/0206 19010KT P6SM SHRA SCT019 BKN030
     FM010100 19006KT P6SM OVC080
     FM010400 20005KT 4SM BR OVC050
     FM011100 VRB03KT 2SM BR BKN015
     FM011400 VRB03KT P6SM BKN015
     FM011800 21006KT P6SM BKN050
     FM020000 20004KT P6SM BKN030=



000
FTUS41 KBOX 312024 AAA
TAFPVD
TAF AMD
KPVD 312024Z 3120/0118 22011G18KT P6SM BKN025
     FM312200 23011G18KT P6SM SCT025 BKN040
     FM010000 21008KT P6SM VCTS OVC015CB
     FM010300 21008KT 3SM -SHRA BR OVC008
     FM010700 23005KT 3SM BR OVC008
     FM010900 23004KT 3SM BR OVC003
     FM011500 26004KT P6SM BKN015=



000
FTUS41 KBOX 312024 AAA
TAFPVD
TAF AMD
KPVD 312024Z 3120/0118 22011G18KT P6SM BKN025
     FM312200 23011G18KT P6SM SCT025 BKN040
     FM010000 21008KT P6SM VCTS OVC015CB
     FM010300 21008KT 3SM -SHRA BR OVC008
     FM010700 23005KT 3SM BR OVC008
     FM010900 23004KT 3SM BR OVC003
     FM011500 26004KT P6SM BKN015=



000
FTUS41 KBOX 312021 AAA
TAFBOS
TAF AMD
KBOS 312021Z 3120/0124 23014G20KT P6SM SCT025 BKN040
     FM010000 22011G20KT P6SM VCTS OVC050CB
     FM010100 22010KT P6SM -SHRA OVC050
     FM010400 23009KT P6SM OVC025
     FM010900 24006KT 3SM BR BKN010
     FM011500 27005KT P6SM BKN025
     FM011800 20007KT P6SM BKN050=



000
FTUS41 KBOX 312021 AAA
TAFBOS
TAF AMD
KBOS 312021Z 3120/0124 23014G20KT P6SM SCT025 BKN040
     FM010000 22011G20KT P6SM VCTS OVC050CB
     FM010100 22010KT P6SM -SHRA OVC050
     FM010400 23009KT P6SM OVC025
     FM010900 24006KT 3SM BR BKN010
     FM011500 27005KT P6SM BKN025
     FM011800 20007KT P6SM BKN050=



000
FTUS41 KBOX 312009 AAA
TAFMHT
TAF AMD
KMHT 312009Z 3120/0118 23008KT P6SM SCT030 BKN080
     FM312300 23008KT P6SM VCTS BKN050CB
     FM010000 22006KT P6SM -SHRA OVC050
     FM010400 22004KT P6SM BKN050
     FM010800 00000KT P6SM BKN090
     FM010900 00000KT 3SM BR BKN015
     FM011500 27004KT P6SM BKN050=



000
FTUS41 KBOX 312009 AAA
TAFMHT
TAF AMD
KMHT 312009Z 3120/0118 23008KT P6SM SCT030 BKN080
     FM312300 23008KT P6SM VCTS BKN050CB
     FM010000 22006KT P6SM -SHRA OVC050
     FM010400 22004KT P6SM BKN050
     FM010800 00000KT P6SM BKN090
     FM010900 00000KT 3SM BR BKN015
     FM011500 27004KT P6SM BKN050=



000
FTUS41 KBOX 312006 AAA
TAFORH
TAF AMD
KORH 312006Z 3120/0118 23012KT P6SM BKN025
     FM312300 23010G20KT P6SM VCTS OVC025CB
     FM010000 23008KT P6SM -SHRA OVC050
     FM010400 24008KT P6SM OVC025
     FM010600 24008KT 3SM BR OVC015
     FM010900 26006KT 3SM BR BKN003
     FM011500 26007KT P6SM BKN015=



000
FTUS41 KBOX 312006 AAA
TAFORH
TAF AMD
KORH 312006Z 3120/0118 23012KT P6SM BKN025
     FM312300 23010G20KT P6SM VCTS OVC025CB
     FM010000 23008KT P6SM -SHRA OVC050
     FM010400 24008KT P6SM OVC025
     FM010600 24008KT 3SM BR OVC015
     FM010900 26006KT 3SM BR BKN003
     FM011500 26007KT P6SM BKN015=



000
FTUS41 KBOX 312005 AAA
TAFBAF
TAF AMD
KBAF 312005Z 3120/0118 21009KT P6SM SCT025 BKN040
     FM312200 21008KT P6SM VCTS BKN035CB
     FM312300 21006KT P6SM -SHRA OVC050
     FM010400 21004KT P6SM OVC050
     FM010600 VRB03KT 3SM BR BKN050
     FM011200 00000KT 2SM BR BKN015
     FM011500 VRB03KT P6SM BKN025=



000
FTUS41 KBOX 312005 AAA
TAFBAF
TAF AMD
KBAF 312005Z 3120/0118 21009KT P6SM SCT025 BKN040
     FM312200 21008KT P6SM VCTS BKN035CB
     FM312300 21006KT P6SM -SHRA OVC050
     FM010400 21004KT P6SM OVC050
     FM010600 VRB03KT 3SM BR BKN050
     FM011200 00000KT 2SM BR BKN015
     FM011500 VRB03KT P6SM BKN025=



000
FTUS41 KBOX 312002 AAA
TAFBDL
TAF AMD
KBDL 312002Z 3120/0124 23009KT P6SM SCT030 BKN060
     FM312200 20009KT P6SM VCTS BKN050CB
     FM312300 19007KT P6SM -SHRA OVC050
     FM010400 20005KT P6SM OVC050
     FM010600 20004KT 3SM BR OVC020
     FM011200 VRB03KT 2SM BR BKN015
     FM011500 20007KT P6SM BKN025
     FM011800 20007KT P6SM BKN050=



000
FTUS41 KBOX 312002 AAA
TAFBDL
TAF AMD
KBDL 312002Z 3120/0124 23009KT P6SM SCT030 BKN060
     FM312200 20009KT P6SM VCTS BKN050CB
     FM312300 19007KT P6SM -SHRA OVC050
     FM010400 20005KT P6SM OVC050
     FM010600 20004KT 3SM BR OVC020
     FM011200 VRB03KT 2SM BR BKN015
     FM011500 20007KT P6SM BKN025
     FM011800 20007KT P6SM BKN050=



000
FTUS41 KBOX 311736
TAFBDL
TAF
KBDL 311736Z 3118/0124 20009KT P6SM BKN025
     FM312100 20009KT P6SM -SHRA VCTS OVC025CB
     FM312300 19007KT P6SM -SHRA OVC050
     FM010400 20005KT P6SM OVC050
     FM010600 20004KT 3SM BR OVC020
     FM011200 VRB03KT 2SM BR BKN015
     FM011500 20007KT P6SM BKN025
     FM011800 20007KT P6SM BKN050=



000
FTUS41 KBOX 311736
TAFORH
TAF
KORH 311736Z 3118/0118 23012KT P6SM BKN015
     FM312100 23010G20KT P6SM VCTS OVC025CB
     FM312300 23008KT P6SM -SHRA OVC050
     FM010400 24008KT P6SM OVC025
     FM010600 24008KT 3SM BR OVC015
     FM010900 26006KT 3SM BR BKN003
     FM011500 26007KT P6SM BKN015=



000
FTUS41 KBOX 311736
TAFACK
TAF
KACK 311736Z 3118/0118 21014KT P6SM BKN025
     FM010000 21014KT 2SM BR OVC003=



000
FTUS41 KBOX 311736
TAFPVD
TAF
KPVD 311736Z 3118/0118 22012G20KT P6SM OVC015
     FM312000 23012G20KT P6SM BKN025
     FM010000 21008KT P6SM VCTS OVC015CB
     FM010300 21008KT 3SM -SHRA BR OVC008
     FM010700 23005KT 3SM BR OVC008
     FM010900 23004KT 3SM BR OVC003
     FM011500 26004KT P6SM BKN015=



000
FTUS41 KBOX 311736
TAFMHT
TAF
KMHT 311736Z 3118/0118 23008KT P6SM BKN030
     FM312100 23008KT P6SM VCTS BKN050CB
     FM312300 22006KT P6SM -SHRA OVC050
     FM010400 22004KT P6SM BKN050
     FM010800 00000KT P6SM BKN090
     FM010900 00000KT 3SM BR BKN015
     FM011500 27004KT P6SM BKN050=



000
FTUS41 KBOX 311736
TAFBOS
TAF
KBOS 311736Z 3118/0124 23014G20KT P6SM BKN025
     FM312000 23014G20KT P6SM SCT025 BKN050
     FM312300 22011G20KT P6SM VCTS OVC050CB
     FM010100 22010KT P6SM -SHRA OVC050
     FM010400 23009KT P6SM OVC025
     FM010900 24006KT 3SM BR BKN010
     FM011500 27005KT P6SM BKN025
     FM011800 20007KT P6SM BKN050=



000
FTUS41 KBOX 311736
TAFBAF
TAF
KBAF 311736Z 3118/0118 21009KT P6SM BKN025
     FM312100 21008KT P6SM -SHRA VCTS OVC025CB
     FM312300 21006KT P6SM SHRA OVC050
     FM010400 21004KT P6SM OVC050
     FM010600 VRB03KT 3SM BR BKN050
     FM011200 00000KT 2SM BR BKN015
     FM011500 VRB03KT P6SM BKN025=



000
FTUS41 KBOX 311736
TAFBOS
TAF
KBOS 311736Z 3118/0124 23014G20KT P6SM BKN025
     FM312000 23014G20KT P6SM SCT025 BKN050
     FM312300 22011G20KT P6SM VCTS OVC050CB
     FM010100 22010KT P6SM -SHRA OVC050
     FM010400 23009KT P6SM OVC025
     FM010900 24006KT 3SM BR BKN010
     FM011500 27005KT P6SM BKN025
     FM011800 20007KT P6SM BKN050=



000
FTUS41 KBOX 311736
TAFBAF
TAF
KBAF 311736Z 3118/0118 21009KT P6SM BKN025
     FM312100 21008KT P6SM -SHRA VCTS OVC025CB
     FM312300 21006KT P6SM SHRA OVC050
     FM010400 21004KT P6SM OVC050
     FM010600 VRB03KT 3SM BR BKN050
     FM011200 00000KT 2SM BR BKN015
     FM011500 VRB03KT P6SM BKN025=



000
FTUS41 KBOX 311736
TAFORH
TAF
KORH 311736Z 3118/0118 23012KT P6SM BKN015
     FM312100 23010G20KT P6SM VCTS OVC025CB
     FM312300 23008KT P6SM -SHRA OVC050
     FM010400 24008KT P6SM OVC025
     FM010600 24008KT 3SM BR OVC015
     FM010900 26006KT 3SM BR BKN003
     FM011500 26007KT P6SM BKN015=



000
FTUS41 KBOX 311736
TAFPVD
TAF
KPVD 311736Z 3118/0118 22012G20KT P6SM OVC015
     FM312000 23012G20KT P6SM BKN025
     FM010000 21008KT P6SM VCTS OVC015CB
     FM010300 21008KT 3SM -SHRA BR OVC008
     FM010700 23005KT 3SM BR OVC008
     FM010900 23004KT 3SM BR OVC003
     FM011500 26004KT P6SM BKN015=



000
FTUS41 KBOX 311736
TAFACK
TAF
KACK 311736Z 3118/0118 21014KT P6SM BKN025
     FM010000 21014KT 2SM BR OVC003=



000
FTUS41 KBOX 311736
TAFBDL
TAF
KBDL 311736Z 3118/0124 20009KT P6SM BKN025
     FM312100 20009KT P6SM -SHRA VCTS OVC025CB
     FM312300 19007KT P6SM -SHRA OVC050
     FM010400 20005KT P6SM OVC050
     FM010600 20004KT 3SM BR OVC020
     FM011200 VRB03KT 2SM BR BKN015
     FM011500 20007KT P6SM BKN025
     FM011800 20007KT P6SM BKN050=



000
FTUS41 KBOX 311736
TAFMHT
TAF
KMHT 311736Z 3118/0118 23008KT P6SM BKN030
     FM312100 23008KT P6SM VCTS BKN050CB
     FM312300 22006KT P6SM -SHRA OVC050
     FM010400 22004KT P6SM BKN050
     FM010800 00000KT P6SM BKN090
     FM010900 00000KT 3SM BR BKN015
     FM011500 27004KT P6SM BKN050=



000
FTUS41 KBOX 311602 AAA
TAFMHT
TAF AMD
KMHT 311602Z 3116/0112 22010KT P6SM SCT025 BKN100
     FM312100 22007KT P6SM -SHRA VCTS OVC035CB
     FM010000 21005KT 3SM -SHRA OVC040
     FM010300 22005KT 6SM BR OVC040
     FM010600 23004KT 5SM BR OVC070
     FM010900 24004KT 3SM BR BKN060=



000
FTUS41 KBOX 311602 AAA
TAFMHT
TAF AMD
KMHT 311602Z 3116/0112 22010KT P6SM SCT025 BKN100
     FM312100 22007KT P6SM -SHRA VCTS OVC035CB
     FM010000 21005KT 3SM -SHRA OVC040
     FM010300 22005KT 6SM BR OVC040
     FM010600 23004KT 5SM BR OVC070
     FM010900 24004KT 3SM BR BKN060=



000
FTUS41 KBOX 311534 AAB
TAFORH
TAF AMD
KORH 311534Z 3116/0112 24012KT P6SM OVC010
     FM311800 22011KT P6SM BKN040
     FM312000 22010KT P6SM -SHRA OVC035
     FM010000 21009KT 3SM -SHRA BR OVC035
     FM010400 23008KT 3SM BR OVC050
     FM010500 23008KT 3SM BR OVC020
     FM010900 25008KT 3SM BR OVC010=



000
FTUS41 KBOX 311534 AAB
TAFORH
TAF AMD
KORH 311534Z 3116/0112 24012KT P6SM OVC010
     FM311800 22011KT P6SM BKN040
     FM312000 22010KT P6SM -SHRA OVC035
     FM010000 21009KT 3SM -SHRA BR OVC035
     FM010400 23008KT 3SM BR OVC050
     FM010500 23008KT 3SM BR OVC020
     FM010900 25008KT 3SM BR OVC010=



000
FTUS41 KBOX 311532 AAA
TAFBOS
TAF AMD
KBOS 311532Z 3116/0118 24013KT P6SM BKN025
     FM311800 24013KT P6SM BKN080
     FM312300 21011KT 5SM BR OVC060
     FM010200 22010KT 5SM -SHRA BR OVC060
     FM010300 22010KT 3SM -SHRA BR OVC060
     FM010500 23009KT 3SM BR OVC050
     FM011400 23006KT P6SM BKN040
     FM011600 22006KT P6SM BKN020=



000
FTUS41 KBOX 311532 AAA
TAFBOS
TAF AMD
KBOS 311532Z 3116/0118 24013KT P6SM BKN025
     FM311800 24013KT P6SM BKN080
     FM312300 21011KT 5SM BR OVC060
     FM010200 22010KT 5SM -SHRA BR OVC060
     FM010300 22010KT 3SM -SHRA BR OVC060
     FM010500 23009KT 3SM BR OVC050
     FM011400 23006KT P6SM BKN040
     FM011600 22006KT P6SM BKN020=



000
FTUS41 KBOX 311442 AAA
TAFBAF
TAF AMD
KBAF 311442Z 3115/0112 18008KT P6SM OVC018
     FM311600 21008KT P6SM OVC040
     FM311900 21008KT P6SM VCTS OVC035CB
     FM312100 21007KT 5SM -SHRA OVC035
     FM010000 20005KT 3SM -SHRA BR OVC060
     FM010400 21004KT 3SM BR OVC050
     FM010600 VRB03KT 2SM BR BKN020=



000
FTUS41 KBOX 311442 AAA
TAFBAF
TAF AMD
KBAF 311442Z 3115/0112 18008KT P6SM OVC018
     FM311600 21008KT P6SM OVC040
     FM311900 21008KT P6SM VCTS OVC035CB
     FM312100 21007KT 5SM -SHRA OVC035
     FM010000 20005KT 3SM -SHRA BR OVC060
     FM010400 21004KT 3SM BR OVC050
     FM010600 VRB03KT 2SM BR BKN020=



000
FTUS41 KBOX 311435 AAA
TAFPVD
TAF AMD
KPVD 311435Z 3115/0112 22013G20KT P6SM BKN020 OVC040
     FM311700 21013KT P6SM BKN080
     FM312100 21011KT P6SM VCTS OVC080CB
     FM010000 21010KT P6SM OVC080
     FM010300 21009KT 3SM -SHRA BR OVC060
     FM010600 22007KT 2SM -SHRA BR OVC035
     FM010800 22006KT 2SM BR OVC003=



000
FTUS41 KBOX 311435 AAA
TAFPVD
TAF AMD
KPVD 311435Z 3115/0112 22013G20KT P6SM BKN020 OVC040
     FM311700 21013KT P6SM BKN080
     FM312100 21011KT P6SM VCTS OVC080CB
     FM010000 21010KT P6SM OVC080
     FM010300 21009KT 3SM -SHRA BR OVC060
     FM010600 22007KT 2SM -SHRA BR OVC035
     FM010800 22006KT 2SM BR OVC003=



000
FTUS41 KBOX 311331 AAA
TAFORH
TAF AMD
KORH 311331Z 3114/0112 23012KT P6SM OVC010
     FM311500 22011KT P6SM BKN040
     FM312000 22010KT P6SM -SHRA OVC035
     FM010000 21009KT 3SM -SHRA BR OVC035
     FM010400 23008KT 3SM BR OVC050
     FM010500 23008KT 3SM BR OVC020
     FM010900 25008KT 3SM BR OVC010=



000
FTUS41 KBOX 311331 AAA
TAFORH
TAF AMD
KORH 311331Z 3114/0112 23012KT P6SM OVC010
     FM311500 22011KT P6SM BKN040
     FM312000 22010KT P6SM -SHRA OVC035
     FM010000 21009KT 3SM -SHRA BR OVC035
     FM010400 23008KT 3SM BR OVC050
     FM010500 23008KT 3SM BR OVC020
     FM010900 25008KT 3SM BR OVC010=



000
FTUS41 KBOX 311329 AAA
TAFBDL
TAF AMD
KBDL 311329Z 3113/0118 19008KT P6SM OVC015
     FM311600 21009KT P6SM OVC040
     FM311900 21008KT P6SM VCTS OVC040CB
     FM312100 21008KT 5SM -SHRA OVC035
     FM010000 20007KT 3SM -SHRA OVC060
     FM010400 21005KT 3SM BR OVC050
     FM011200 VRB03KT 3SM BR BKN003=



000
FTUS41 KBOX 311329 AAA
TAFBDL
TAF AMD
KBDL 311329Z 3113/0118 19008KT P6SM OVC015
     FM311600 21009KT P6SM OVC040
     FM311900 21008KT P6SM VCTS OVC040CB
     FM312100 21008KT 5SM -SHRA OVC035
     FM010000 20007KT 3SM -SHRA OVC060
     FM010400 21005KT 3SM BR OVC050
     FM011200 VRB03KT 3SM BR BKN003=



000
FTUS41 KBOX 311131
TAFBOS
TAF
KBOS 311131Z 3112/0118 22009KT P6SM SCT035 BKN250
     FM312000 22011KT P6SM VCTS BKN080CB
     FM010000 21011KT 5SM BR OVC060
     FM010200 22010KT 5SM -SHRA BR OVC060
     FM010300 22010KT 3SM -SHRA BR OVC060
     FM010500 23009KT 3SM BR OVC050
     FM011400 23006KT P6SM BKN040
     FM011600 22006KT P6SM BKN020=



000
FTUS41 KBOX 311131
TAFMHT
TAF
KMHT 311131Z 3112/0112 20007KT P6SM BKN200
     FM311700 22008KT P6SM VCTS BKN200CB
     FM312100 22007KT P6SM -SHRA OVC035
     FM010000 21005KT 3SM -SHRA OVC040
     FM010300 22005KT 6SM BR OVC040
     FM010600 23004KT 5SM BR OVC070
     FM010900 24004KT 3SM BR BKN060=



000
FTUS41 KBOX 311131
TAFACK
TAF
KACK 311131Z 3112/0112 21012KT P6SM OVC045
     FM010000 21013G21KT 2SM BR BKN100
     FM010300 22013KT 1/2SM FG BKN003=



000
FTUS41 KBOX 311131
TAFBAF
TAF
KBAF 311131Z 3112/0112 18008KT P6SM BKN025
     FM311400 21008KT P6SM OVC035
     FM311500 21008KT P6SM VCTS OVC040CB
     FM312000 21008KT P6SM VCTS OVC035CB
     FM312100 21007KT 5SM -SHRA OVC035
     FM010000 20005KT 3SM -SHRA BR OVC060
     FM010400 21004KT 3SM BR OVC050
     FM010600 VRB03KT 2SM BR BKN020=



000
FTUS41 KBOX 311131
TAFBDL
TAF
KBDL 311131Z 3112/0118 18006KT P6SM SCT025 BKN040
     FM311400 20007KT P6SM SCT050 BKN100
     FM311700 21009KT P6SM VCTS OVC040CB
     FM312000 21008KT P6SM VCTS OVC040CB
     FM312100 21008KT 5SM -SHRA OVC035
     FM010000 20007KT 3SM -SHRA OVC060
     FM010400 21005KT 3SM BR OVC050
     FM011200 VRB03KT 3SM BR BKN003=



000
FTUS41 KBOX 311131
TAFPVD
TAF
KPVD 311131Z 3112/0112 20008KT P6SM OVC040
     FM311800 21013KT P6SM BKN080
     FM312100 21011KT P6SM VCTS OVC080CB
     FM010000 21010KT P6SM OVC080
     FM010300 21009KT 3SM -SHRA BR OVC060
     FM010600 22007KT 2SM -SHRA BR OVC035
     FM010800 22006KT 2SM BR OVC003=



000
FTUS41 KBOX 311131
TAFORH
TAF
KORH 311131Z 3112/0112 23012KT P6SM FEW025 OVC080
     FM311800 22011KT P6SM VCTS BKN140CB
     FM312100 22010KT P6SM -SHRA OVC035
     FM010000 21009KT 3SM -SHRA BR OVC035
     FM010400 23008KT 3SM BR OVC050
     FM010500 23008KT 3SM BR OVC020
     FM010900 25008KT 3SM BR OVC010=



000
FTUS41 KBOX 311131
TAFBAF
TAF
KBAF 311131Z 3112/0112 18008KT P6SM BKN025
     FM311400 21008KT P6SM OVC035
     FM311500 21008KT P6SM VCTS OVC040CB
     FM312000 21008KT P6SM VCTS OVC035CB
     FM312100 21007KT 5SM -SHRA OVC035
     FM010000 20005KT 3SM -SHRA BR OVC060
     FM010400 21004KT 3SM BR OVC050
     FM010600 VRB03KT 2SM BR BKN020=



000
FTUS41 KBOX 311131
TAFACK
TAF
KACK 311131Z 3112/0112 21012KT P6SM OVC045
     FM010000 21013G21KT 2SM BR BKN100
     FM010300 22013KT 1/2SM FG BKN003=



000
FTUS41 KBOX 311131
TAFBOS
TAF
KBOS 311131Z 3112/0118 22009KT P6SM SCT035 BKN250
     FM312000 22011KT P6SM VCTS BKN080CB
     FM010000 21011KT 5SM BR OVC060
     FM010200 22010KT 5SM -SHRA BR OVC060
     FM010300 22010KT 3SM -SHRA BR OVC060
     FM010500 23009KT 3SM BR OVC050
     FM011400 23006KT P6SM BKN040
     FM011600 22006KT P6SM BKN020=



000
FTUS41 KBOX 311131
TAFPVD
TAF
KPVD 311131Z 3112/0112 20008KT P6SM OVC040
     FM311800 21013KT P6SM BKN080
     FM312100 21011KT P6SM VCTS OVC080CB
     FM010000 21010KT P6SM OVC080
     FM010300 21009KT 3SM -SHRA BR OVC060
     FM010600 22007KT 2SM -SHRA BR OVC035
     FM010800 22006KT 2SM BR OVC003=



000
FTUS41 KBOX 311131
TAFBDL
TAF
KBDL 311131Z 3112/0118 18006KT P6SM SCT025 BKN040
     FM311400 20007KT P6SM SCT050 BKN100
     FM311700 21009KT P6SM VCTS OVC040CB
     FM312000 21008KT P6SM VCTS OVC040CB
     FM312100 21008KT 5SM -SHRA OVC035
     FM010000 20007KT 3SM -SHRA OVC060
     FM010400 21005KT 3SM BR OVC050
     FM011200 VRB03KT 3SM BR BKN003=



000
FTUS41 KBOX 311131
TAFMHT
TAF
KMHT 311131Z 3112/0112 20007KT P6SM BKN200
     FM311700 22008KT P6SM VCTS BKN200CB
     FM312100 22007KT P6SM -SHRA OVC035
     FM010000 21005KT 3SM -SHRA OVC040
     FM010300 22005KT 6SM BR OVC040
     FM010600 23004KT 5SM BR OVC070
     FM010900 24004KT 3SM BR BKN060=



000
FTUS41 KBOX 311131
TAFORH
TAF
KORH 311131Z 3112/0112 23012KT P6SM FEW025 OVC080
     FM311800 22011KT P6SM VCTS BKN140CB
     FM312100 22010KT P6SM -SHRA OVC035
     FM010000 21009KT 3SM -SHRA BR OVC035
     FM010400 23008KT 3SM BR OVC050
     FM010500 23008KT 3SM BR OVC020
     FM010900 25008KT 3SM BR OVC010=



000
FTUS41 KBOX 310904 AAA
TAFORH
TAF AMD
KORH 310904Z 3109/0106 22012KT P6SM SCT008 OVC020
     FM311300 23011KT P6SM BKN025
     FM311700 22011KT P6SM BKN035
     FM312100 22010KT 5SM -SHRA OVC035
     FM010300 23009KT 3SM -SHRA BR OVC050=



000
FTUS41 KBOX 310904 AAA
TAFORH
TAF AMD
KORH 310904Z 3109/0106 22012KT P6SM SCT008 OVC020
     FM311300 23011KT P6SM BKN025
     FM311700 22011KT P6SM BKN035
     FM312100 22010KT 5SM -SHRA OVC035
     FM010300 23009KT 3SM -SHRA BR OVC050=



000
FTUS41 KBOX 310903 AAA
TAFMHT
TAF AMD
KMHT 310903Z 3109/0106 18006KT P6SM OVC020
     FM311100 21007KT P6SM SCT020 BKN040
     FM311500 21008KT P6SM BKN050
     FM311700 21010KT P6SM VCTS BKN035CB
     FM312100 22007KT 5SM -SHRA OVC035=



000
FTUS41 KBOX 310903 AAA
TAFBOS
TAF AMD
KBOS 310903Z 3109/0112 21010KT P6SM SCT015 OVC025
     FM311200 22010KT P6SM BKN035
     FM311500 22011KT P6SM BKN025
     FM311800 22010KT P6SM BKN045
     FM010200 22010KT 3SM -SHRA BR OVC060=



000
FTUS41 KBOX 310903 AAA
TAFBDL
TAF AMD
KBDL 310903Z 3109/0112 18006KT P6SM BKN035
     FM311000 20006KT P6SM BKN035
     FM311700 21010KT P6SM VCTS BKN035CB
     FM312100 20010KT 5SM -SHRA OVC035=



000
FTUS41 KBOX 310903 AAA
TAFPVD
TAF AMD
KPVD 310903Z 3109/0106 20006KT P6SM OVC035
     FM311000 21006KT P6SM BKN025
     FM311200 21012KT P6SM BKN035
     FM010300 21009KT 3SM -SHRA BR OVC060=



000
FTUS41 KBOX 310903 AAA
TAFPVD
TAF AMD
KPVD 310903Z 3109/0106 20006KT P6SM OVC035
     FM311000 21006KT P6SM BKN025
     FM311200 21012KT P6SM BKN035
     FM010300 21009KT 3SM -SHRA BR OVC060=



000
FTUS41 KBOX 310903 AAA
TAFBDL
TAF AMD
KBDL 310903Z 3109/0112 18006KT P6SM BKN035
     FM311000 20006KT P6SM BKN035
     FM311700 21010KT P6SM VCTS BKN035CB
     FM312100 20010KT 5SM -SHRA OVC035=



000
FTUS41 KBOX 310903 AAA
TAFMHT
TAF AMD
KMHT 310903Z 3109/0106 18006KT P6SM OVC020
     FM311100 21007KT P6SM SCT020 BKN040
     FM311500 21008KT P6SM BKN050
     FM311700 21010KT P6SM VCTS BKN035CB
     FM312100 22007KT 5SM -SHRA OVC035=



000
FTUS41 KBOX 310903 AAA
TAFBOS
TAF AMD
KBOS 310903Z 3109/0112 21010KT P6SM SCT015 OVC025
     FM311200 22010KT P6SM BKN035
     FM311500 22011KT P6SM BKN025
     FM311800 22010KT P6SM BKN045
     FM010200 22010KT 3SM -SHRA BR OVC060=



000
FTUS41 KBOX 310903 AAA
TAFBAF
TAF AMD
KBAF 310903Z 3109/0106 17007KT P6SM BKN035
     FM311200 20006KT P6SM BKN035
     FM311600 21008KT P6SM VCTS BKN035CB
     FM312100 21007KT 5SM -SHRA OVC035=



000
FTUS41 KBOX 310903 AAA
TAFBAF
TAF AMD
KBAF 310903Z 3109/0106 17007KT P6SM BKN035
     FM311200 20006KT P6SM BKN035
     FM311600 21008KT P6SM VCTS BKN035CB
     FM312100 21007KT 5SM -SHRA OVC035=



000
FTUS41 KBOX 310535
TAFBDL
TAF
KBDL 310535Z 3106/0112 20006KT P6SM BKN025
     FM311000 20006KT P6SM BKN035
     FM311700 21010KT P6SM VCTS BKN035CB
     FM312100 20010KT 5SM -SHRA OVC035=



000
FTUS41 KBOX 310535
TAFORH
TAF
KORH 310535Z 3106/0106 22012KT P6SM OVC008
     FM311300 23011KT P6SM BKN020
     FM311700 22011KT P6SM BKN035
     FM312100 22010KT 5SM -SHRA OVC035
     FM010300 23009KT 3SM -SHRA BR OVC050=



000
FTUS41 KBOX 310535
TAFMHT
TAF
KMHT 310535Z 3106/0106 17006KT P6SM BKN020
     FM311000 21007KT P6SM BKN050
     FM311700 21010KT P6SM VCTS BKN035CB
     FM312100 22007KT 5SM -SHRA OVC035=



000
FTUS41 KBOX 310535
TAFACK
TAF
KACK 310535Z 3106/0106 21008KT P6SM SCT150
     FM310800 21009KT P6SM BKN045
     FM311600 21013KT P6SM BKN035
     FM010000 21013KT 1/2SM FG OVC003=



000
FTUS41 KBOX 310535
TAFBOS
TAF
KBOS 310535Z 3106/0112 21010KT P6SM BKN035
     FM310800 21010KT P6SM OVC020
     FM311200 22010KT P6SM BKN035
     FM311500 22011KT P6SM BKN025
     FM311800 22010KT P6SM BKN045
     FM010200 22010KT 3SM -SHRA BR OVC060=



000
FTUS41 KBOX 310535
TAFBAF
TAF
KBAF 310535Z 3106/0106 18007KT P6SM BKN020
     FM311000 20006KT P6SM BKN035
     FM311600 21008KT P6SM VCTS BKN035CB
     FM312100 21007KT 5SM -SHRA OVC035=



000
FTUS41 KBOX 310535
TAFPVD
TAF
KPVD 310535Z 3106/0106 20004KT P6SM OVC045
     FM310800 21006KT P6SM BKN025
     FM311200 21012KT P6SM BKN035
     FM010300 21009KT 3SM -SHRA BR OVC060=



000
FTUS41 KBOX 310535
TAFORH
TAF
KORH 310535Z 3106/0106 22012KT P6SM OVC008
     FM311300 23011KT P6SM BKN020
     FM311700 22011KT P6SM BKN035
     FM312100 22010KT 5SM -SHRA OVC035
     FM010300 23009KT 3SM -SHRA BR OVC050=



000
FTUS41 KBOX 310535
TAFACK
TAF
KACK 310535Z 3106/0106 21008KT P6SM SCT150
     FM310800 21009KT P6SM BKN045
     FM311600 21013KT P6SM BKN035
     FM010000 21013KT 1/2SM FG OVC003=



000
FTUS41 KBOX 310535
TAFBDL
TAF
KBDL 310535Z 3106/0112 20006KT P6SM BKN025
     FM311000 20006KT P6SM BKN035
     FM311700 21010KT P6SM VCTS BKN035CB
     FM312100 20010KT 5SM -SHRA OVC035=



000
FTUS41 KBOX 310535
TAFMHT
TAF
KMHT 310535Z 3106/0106 17006KT P6SM BKN020
     FM311000 21007KT P6SM BKN050
     FM311700 21010KT P6SM VCTS BKN035CB
     FM312100 22007KT 5SM -SHRA OVC035=



000
FTUS41 KBOX 310535
TAFPVD
TAF
KPVD 310535Z 3106/0106 20004KT P6SM OVC045
     FM310800 21006KT P6SM BKN025
     FM311200 21012KT P6SM BKN035
     FM010300 21009KT 3SM -SHRA BR OVC060=



000
FTUS41 KBOX 310535
TAFBOS
TAF
KBOS 310535Z 3106/0112 21010KT P6SM BKN035
     FM310800 21010KT P6SM OVC020
     FM311200 22010KT P6SM BKN035
     FM311500 22011KT P6SM BKN025
     FM311800 22010KT P6SM BKN045
     FM010200 22010KT 3SM -SHRA BR OVC060=



000
FTUS41 KBOX 310535
TAFBAF
TAF
KBAF 310535Z 3106/0106 18007KT P6SM BKN020
     FM311000 20006KT P6SM BKN035
     FM311600 21008KT P6SM VCTS BKN035CB
     FM312100 21007KT 5SM -SHRA OVC035=



000
FTUS41 KBOX 302331
TAFBAF
TAF
KBAF 302331Z 3100/3124 19008KT P6SM BKN040
     FM310400 19006KT P6SM BKN030
     FM311200 20006KT 3SM BR BKN025
     FM311300 20007KT P6SM BKN025
     FM311500 20008KT P6SM BKN020
     FM311900 21008KT P6SM -SHRA BKN040
     FM312100 21007KT 5SM -SHRA VCTS OVC045CB=



000
FTUS41 KBOX 302331
TAFORH
TAF
KORH 302331Z 3100/3124 19009KT P6SM SCT030
     FM310400 21010KT P6SM BKN010
     FM311000 22011KT 6SM BR BKN035
     FM311200 22011KT 3SM BR BKN025
     FM311400 22011KT P6SM BKN030
     FM312000 22011KT P6SM BKN035
     FM312300 22010KT 6SM -SHRA VCTS OVC040CB=



000
FTUS41 KBOX 302331
TAFBDL
TAF
KBDL 302331Z 3100/0106 19010KT P6SM BKN035
     FM311000 20006KT 5SM BR BKN025
     FM311200 20006KT 4SM BR BKN025
     FM311300 20007KT P6SM BKN025
     FM311600 21009KT P6SM BKN045
     FM312200 20007KT 5SM -SHRA VCTS BKN045 OVC090CB
     FM010000 20006KT 3SM -SHRA BR OVC035
     FM010300 21005KT 3SM BR OVC015=



000
FTUS41 KBOX 302331
TAFBOS
TAF
KBOS 302331Z 3100/0106 19010KT P6SM SCT040 SCT250
     FM311200 21009KT 3SM BR BKN035
     FM311400 22010KT P6SM BKN025
     FM311700 22012KT P6SM BKN120
     FM010000 21011KT 3SM BR OVC030
     FM010300 22010KT 2SM BR OVC010=



000
FTUS41 KBOX 302331
TAFMHT
TAF
KMHT 302331Z 3100/3124 20007KT P6SM SCT250
     FM310300 20006KT P6SM BKN150
     FM310700 20006KT P6SM BKN020
     FM310900 21006KT 6SM BR BKN010
     FM311500 22008KT P6SM BKN025
     FM311700 22009KT P6SM BKN130
     FM312200 22006KT 5SM -SHRA VCTS OVC060CB=



000
FTUS41 KBOX 302331
TAFPVD
TAF
KPVD 302331Z 3100/3124 19008KT P6SM SCT040 BKN150
     FM311000 20009KT P6SM BKN040
     FM311400 21010KT P6SM BKN030
     FM311600 21011KT P6SM BKN035
     FM312100 21011KT P6SM BKN025=



000
FTUS41 KBOX 302331
TAFPVD
TAF
KPVD 302331Z 3100/3124 19008KT P6SM SCT040 BKN150
     FM311000 20009KT P6SM BKN040
     FM311400 21010KT P6SM BKN030
     FM311600 21011KT P6SM BKN035
     FM312100 21011KT P6SM BKN025=



000
FTUS41 KBOX 302331
TAFBAF
TAF
KBAF 302331Z 3100/3124 19008KT P6SM BKN040
     FM310400 19006KT P6SM BKN030
     FM311200 20006KT 3SM BR BKN025
     FM311300 20007KT P6SM BKN025
     FM311500 20008KT P6SM BKN020
     FM311900 21008KT P6SM -SHRA BKN040
     FM312100 21007KT 5SM -SHRA VCTS OVC045CB=



000
FTUS41 KBOX 302331
TAFMHT
TAF
KMHT 302331Z 3100/3124 20007KT P6SM SCT250
     FM310300 20006KT P6SM BKN150
     FM310700 20006KT P6SM BKN020
     FM310900 21006KT 6SM BR BKN010
     FM311500 22008KT P6SM BKN025
     FM311700 22009KT P6SM BKN130
     FM312200 22006KT 5SM -SHRA VCTS OVC060CB=



000
FTUS41 KBOX 302331
TAFACK
TAF
KACK 302331Z 3100/3124 19008KT P6SM FEW250
     FM310300 20008KT P6SM SCT020 SCT150
     FM310900 21010KT P6SM SCT020 BKN110
     FM312100 21014KT 4SM BR BKN150=



000
FTUS41 KBOX 302331
TAFACK
TAF
KACK 302331Z 3100/3124 19008KT P6SM FEW250
     FM310300 20008KT P6SM SCT020 SCT150
     FM310900 21010KT P6SM SCT020 BKN110
     FM312100 21014KT 4SM BR BKN150=



000
FTUS41 KBOX 302331
TAFBDL
TAF
KBDL 302331Z 3100/0106 19010KT P6SM BKN035
     FM311000 20006KT 5SM BR BKN025
     FM311200 20006KT 4SM BR BKN025
     FM311300 20007KT P6SM BKN025
     FM311600 21009KT P6SM BKN045
     FM312200 20007KT 5SM -SHRA VCTS BKN045 OVC090CB
     FM010000 20006KT 3SM -SHRA BR OVC035
     FM010300 21005KT 3SM BR OVC015=



000
FTUS41 KBOX 302331
TAFORH
TAF
KORH 302331Z 3100/3124 19009KT P6SM SCT030
     FM310400 21010KT P6SM BKN010
     FM311000 22011KT 6SM BR BKN035
     FM311200 22011KT 3SM BR BKN025
     FM311400 22011KT P6SM BKN030
     FM312000 22011KT P6SM BKN035
     FM312300 22010KT 6SM -SHRA VCTS OVC040CB=



000
FTUS41 KBOX 302331
TAFBOS
TAF
KBOS 302331Z 3100/0106 19010KT P6SM SCT040 SCT250
     FM311200 21009KT 3SM BR BKN035
     FM311400 22010KT P6SM BKN025
     FM311700 22012KT P6SM BKN120
     FM010000 21011KT 3SM BR OVC030
     FM010300 22010KT 2SM BR OVC010=



000
FTUS41 KBOX 302105 AAB
TAFPVD
TAF AMD
KPVD 302105Z 3021/3118 20012KT P6SM FEW035
     FM310000 20007KT P6SM BKN045
     FM311600 21011KT P6SM BKN035=



000
FTUS41 KBOX 302105 AAB
TAFPVD
TAF AMD
KPVD 302105Z 3021/3118 20012KT P6SM FEW035
     FM310000 20007KT P6SM BKN045
     FM311600 21011KT P6SM BKN035=



000
FTUS41 KBOX 302033 AAA
TAFPVD
TAF AMD
KPVD 302033Z 3021/3118 16014G21KT P6SM FEW035
     FM310000 20007KT P6SM BKN045
     FM311600 21011KT P6SM BKN035=



000
FTUS41 KBOX 302033 AAA
TAFPVD
TAF AMD
KPVD 302033Z 3021/3118 16014G21KT P6SM FEW035
     FM310000 20007KT P6SM BKN045
     FM311600 21011KT P6SM BKN035=



000
FTUS41 KBOX 302032 AAA
TAFMHT
TAF AMD
KMHT 302032Z 3021/3118 20012KT P6SM FEW050
     FM310300 20006KT P6SM BKN090
     FM310900 21006KT 6SM BR BKN010
     FM311400 22008KT P6SM BKN025
     FM311700 22009KT P6SM BKN130=



000
FTUS41 KBOX 302032 AAA
TAFMHT
TAF AMD
KMHT 302032Z 3021/3118 20012KT P6SM FEW050
     FM310300 20006KT P6SM BKN090
     FM310900 21006KT 6SM BR BKN010
     FM311400 22008KT P6SM BKN025
     FM311700 22009KT P6SM BKN130=



000
FTUS41 KBOX 302029 AAA
TAFORH
TAF AMD
KORH 302029Z 3020/3118 20011KT P6SM BKN040
     FM310400 21010KT P6SM BKN010
     FM311100 22011KT 3SM BR BKN025
     FM311400 22011KT P6SM BKN030=



000
FTUS41 KBOX 302029 AAA
TAFORH
TAF AMD
KORH 302029Z 3020/3118 20011KT P6SM BKN040
     FM310400 21010KT P6SM BKN010
     FM311100 22011KT 3SM BR BKN025
     FM311400 22011KT P6SM BKN030=



000
FTUS41 KBOX 302027 AAA
TAFBAF
TAF AMD
KBAF 302027Z 3020/3118 19011KT P6SM BKN045
     FM310300 19006KT P6SM BKN030
     FM310900 20006KT 5SM BR SCT025
     FM311200 20006KT 3SM BR BKN025
     FM311400 20008KT P6SM BKN020=



000
FTUS41 KBOX 302027 AAA
TAFBAF
TAF AMD
KBAF 302027Z 3020/3118 19011KT P6SM BKN045
     FM310300 19006KT P6SM BKN030
     FM310900 20006KT 5SM BR SCT025
     FM311200 20006KT 3SM BR BKN025
     FM311400 20008KT P6SM BKN020=



000
FTUS41 KBOX 302026 AAA
TAFBDL
TAF AMD
KBDL 302026Z 3020/3124 19008KT P6SM SCT050
     FM311000 20006KT 6SM BR BKN025
     FM311200 20006KT 3SM BR BKN025
     FM311400 20008KT P6SM BKN020
     FM311800 21009KT P6SM BKN045
     FM312200 20007KT 5SM -SHRA OVC090=



000
FTUS41 KBOX 302026 AAA
TAFBDL
TAF AMD
KBDL 302026Z 3020/3124 19008KT P6SM SCT050
     FM311000 20006KT 6SM BR BKN025
     FM311200 20006KT 3SM BR BKN025
     FM311400 20008KT P6SM BKN020
     FM311800 21009KT P6SM BKN045
     FM312200 20007KT 5SM -SHRA OVC090=



000
FTUS41 KBOX 302025 AAA
TAFBOS
TAF AMD
KBOS 302025Z 3020/3124 20013KT P6SM FEW060
     FM311200 21009KT 3SM BR BKN035
     FM311400 22010KT P6SM BKN025
     FM311700 22012KT P6SM SCT025 BKN120=



000
FTUS41 KBOX 302025 AAA
TAFBOS
TAF AMD
KBOS 302025Z 3020/3124 20013KT P6SM FEW060
     FM311200 21009KT 3SM BR BKN035
     FM311400 22010KT P6SM BKN025
     FM311700 22012KT P6SM SCT025 BKN120=



000
FTUS41 KBOX 301728
TAFBAF
TAF
KBAF 301728Z 3018/3118 18012KT P6SM BKN045
     FM310300 19006KT P6SM BKN030
     FM310900 20006KT 5SM BR SCT025
     FM311200 20006KT 3SM BR BKN025
     FM311400 20008KT P6SM BKN020=



000
FTUS41 KBOX 301728
TAFBOS
TAF
KBOS 301728Z 3018/3124 19010G16KT P6SM FEW040
     FM310000 21009KT P6SM BKN110
     FM311200 21009KT 3SM BR BKN035
     FM311400 22010KT P6SM BKN025
     FM311700 22012KT P6SM SCT025 BKN120=



000
FTUS41 KBOX 301728
TAFORH
TAF
KORH 301728Z 3018/3118 19014KT P6SM SCT030
     FM310000 20008KT P6SM BKN025
     FM310400 21010KT P6SM BKN010
     FM311100 22011KT 3SM BR BKN025
     FM311400 22011KT P6SM BKN030=



000
FTUS41 KBOX 301728
TAFBOS
TAF
KBOS 301728Z 3018/3124 19010G16KT P6SM FEW040
     FM310000 21009KT P6SM BKN110
     FM311200 21009KT 3SM BR BKN035
     FM311400 22010KT P6SM BKN025
     FM311700 22012KT P6SM SCT025 BKN120=



000
FTUS41 KBOX 301728
TAFACK
TAF
KACK 301728Z 3018/3118 14008KT P6SM SKC
     FM310300 20008KT P6SM SCT020
     FM310900 21010KT P6SM BKN110=



000
FTUS41 KBOX 301728
TAFORH
TAF
KORH 301728Z 3018/3118 19014KT P6SM SCT030
     FM310000 20008KT P6SM BKN025
     FM310400 21010KT P6SM BKN010
     FM311100 22011KT 3SM BR BKN025
     FM311400 22011KT P6SM BKN030=



000
FTUS41 KBOX 301728
TAFPVD
TAF
KPVD 301728Z 3018/3118 15012KT P6SM FEW030
     FM310400 20007KT P6SM BKN045
     FM311600 21011KT P6SM BKN035=



000
FTUS41 KBOX 301728
TAFBDL
TAF
KBDL 301728Z 3018/3124 19010KT P6SM BKN045
     FM311000 20006KT 6SM BR BKN025
     FM311200 20006KT 3SM BR BKN025
     FM311400 20008KT P6SM BKN020
     FM311800 21009KT P6SM BKN045
     FM312200 20007KT 5SM -SHRA OVC090=



000
FTUS41 KBOX 301728
TAFMHT
TAF
KMHT 301728Z 3018/3118 18010KT P6SM SCT040
     FM310300 20006KT P6SM BKN090
     FM310900 21006KT 6SM BR BKN010
     FM311400 22008KT P6SM BKN025
     FM311700 22009KT P6SM BKN130=



000
FTUS41 KBOX 301728
TAFBDL
TAF
KBDL 301728Z 3018/3124 19010KT P6SM BKN045
     FM311000 20006KT 6SM BR BKN025
     FM311200 20006KT 3SM BR BKN025
     FM311400 20008KT P6SM BKN020
     FM311800 21009KT P6SM BKN045
     FM312200 20007KT 5SM -SHRA OVC090=



000
FTUS41 KBOX 301728
TAFMHT
TAF
KMHT 301728Z 3018/3118 18010KT P6SM SCT040
     FM310300 20006KT P6SM BKN090
     FM310900 21006KT 6SM BR BKN010
     FM311400 22008KT P6SM BKN025
     FM311700 22009KT P6SM BKN130=



000
FTUS41 KBOX 301728
TAFACK
TAF
KACK 301728Z 3018/3118 14008KT P6SM SKC
     FM310300 20008KT P6SM SCT020
     FM310900 21010KT P6SM BKN110=



000
FTUS41 KBOX 301728
TAFBAF
TAF
KBAF 301728Z 3018/3118 18012KT P6SM BKN045
     FM310300 19006KT P6SM BKN030
     FM310900 20006KT 5SM BR SCT025
     FM311200 20006KT 3SM BR BKN025
     FM311400 20008KT P6SM BKN020=



000
FTUS41 KBOX 301728
TAFPVD
TAF
KPVD 301728Z 3018/3118 15012KT P6SM FEW030
     FM310400 20007KT P6SM BKN045
     FM311600 21011KT P6SM BKN035=



000
FTUS41 KBOX 301417 AAA
TAFPVD
TAF AMD
KPVD 301417Z 3014/3112 16010KT P6SM SCT025
     FM310400 20006KT P6SM BKN035
     FM310700 21006KT 6SM -DZ BR BKN035
     FM310900 21007KT 3SM -DZ BR BKN035
     FM311000 21007KT 5SM -DZ BR BKN035=



000
FTUS41 KBOX 301417 AAA
TAFPVD
TAF AMD
KPVD 301417Z 3014/3112 16010KT P6SM SCT025
     FM310400 20006KT P6SM BKN035
     FM310700 21006KT 6SM -DZ BR BKN035
     FM310900 21007KT 3SM -DZ BR BKN035
     FM311000 21007KT 5SM -DZ BR BKN035=



000
FTUS41 KBOX 301416 AAA
TAFMHT
TAF AMD
KMHT 301416Z 3014/3112 20008KT P6SM SCT020
     FM310300 20006KT P6SM BKN045
     FM310700 21006KT 6SM -DZ BR BKN020
     FM310900 21006KT 3SM -DZ BR BKN010=



000
FTUS41 KBOX 301416 AAA
TAFMHT
TAF AMD
KMHT 301416Z 3014/3112 20008KT P6SM SCT020
     FM310300 20006KT P6SM BKN045
     FM310700 21006KT 6SM -DZ BR BKN020
     FM310900 21006KT 3SM -DZ BR BKN010=



000
FTUS41 KBOX 301415 AAA
TAFORH
TAF AMD
KORH 301415Z 3014/3112 21011KT P6SM SCT020
     FM310300 21009KT P6SM BKN045
     FM310600 22010KT P6SM BKN010
     FM310800 22010KT 6SM -DZ BR BKN010=



000
FTUS41 KBOX 301415 AAA
TAFORH
TAF AMD
KORH 301415Z 3014/3112 21011KT P6SM SCT020
     FM310300 21009KT P6SM BKN045
     FM310600 22010KT P6SM BKN010
     FM310800 22010KT 6SM -DZ BR BKN010=



000
FTUS41 KBOX 301415 AAA
TAFBDL
TAF AMD
KBDL 301415Z 3014/3118 20006KT P6SM SCT025 BKN035
     FM310300 19007KT P6SM BKN045
     FM310600 20006KT P6SM BKN025
     FM310800 20006KT 3SM -DZ BR BKN025
     FM311300 20007KT P6SM BKN025
     FM311500 20008KT P6SM BKN020=



000
FTUS41 KBOX 301415 AAA
TAFBDL
TAF AMD
KBDL 301415Z 3014/3118 20006KT P6SM SCT025 BKN035
     FM310300 19007KT P6SM BKN045
     FM310600 20006KT P6SM BKN025
     FM310800 20006KT 3SM -DZ BR BKN025
     FM311300 20007KT P6SM BKN025
     FM311500 20008KT P6SM BKN020=



000
FTUS41 KBOX 301413 AAA
TAFBOS
TAF AMD
KBOS 301413Z 3014/3118 19007KT P6SM SCT025
     FM310400 21009KT P6SM BKN035
     FM310600 21008KT P6SM BKN020
     FM310700 21008KT 6SM -DZ BR BKN010
     FM311300 21010KT P6SM BKN200
     FM311700 22011KT P6SM BKN025=



000
FTUS41 KBOX 301413 AAA
TAFBOS
TAF AMD
KBOS 301413Z 3014/3118 19007KT P6SM SCT025
     FM310400 21009KT P6SM BKN035
     FM310600 21008KT P6SM BKN020
     FM310700 21008KT 6SM -DZ BR BKN010
     FM311300 21010KT P6SM BKN200
     FM311700 22011KT P6SM BKN025=



000
FTUS41 KBOX 301121
TAFMHT
TAF
KMHT 301121Z 3012/3112 VRB03KT P6SM FEW020 BKN250
     FM301400 20007KT P6SM FEW045
     FM310300 20006KT P6SM BKN045
     FM310700 21006KT 6SM -DZ BR BKN020
     FM310900 21006KT 3SM -DZ BR BKN010=



000
FTUS41 KBOX 301121
TAFBOS
TAF
KBOS 301121Z 3012/3118 21005KT P6SM FEW250
     FM301500 19008KT P6SM FEW045
     FM310400 21009KT P6SM BKN035
     FM310600 21008KT P6SM BKN020
     FM310700 21008KT 6SM -DZ BR BKN010
     FM311300 21010KT P6SM BKN200
     FM311700 22011KT P6SM BKN025=



000
FTUS41 KBOX 301121
TAFBAF
TAF
KBAF 301121Z 3012/3112 00000KT P6SM FEW250
     FM301500 19006KT P6SM FEW045
     FM310300 19006KT P6SM BKN045
     FM310600 20005KT P6SM BKN003
     FM310800 20005KT 5SM -DZ BR BKN003=



000
FTUS41 KBOX 301121
TAFBDL
TAF
KBDL 301121Z 3012/3118 00000KT P6SM FEW012 SCT250
     FM301500 18006KT P6SM FEW045
     FM310300 19007KT P6SM BKN045
     FM310600 20006KT P6SM BKN025
     FM310800 20006KT 3SM -DZ BR BKN025
     FM311300 20007KT P6SM BKN025
     FM311500 20008KT P6SM BKN020=



000
FTUS41 KBOX 301121
TAFPVD
TAF
KPVD 301121Z 3012/3112 00000KT P6SM FEW020 FEW250
     FM301400 18007KT P6SM FEW045
     FM310400 20006KT P6SM BKN035
     FM310700 21006KT 6SM -DZ BR BKN035
     FM310900 21007KT 3SM -DZ BR BKN035
     FM311000 21007KT 5SM -DZ BR BKN035=



000
FTUS41 KBOX 301121
TAFACK
TAF
KACK 301121Z 3012/3112 13005KT P6SM FEW250
     FM301700 18009KT P6SM SKC
     FM310700 21009KT 5SM -DZ BR BKN250
     FM310900 21010KT 1SM -DZ BR BKN200
     FM311100 21010KT 3/4SM -DZ BR BKN250=



000
FTUS41 KBOX 301121
TAFBDL
TAF
KBDL 301121Z 3012/3118 00000KT P6SM FEW012 SCT250
     FM301500 18006KT P6SM FEW045
     FM310300 19007KT P6SM BKN045
     FM310600 20006KT P6SM BKN025
     FM310800 20006KT 3SM -DZ BR BKN025
     FM311300 20007KT P6SM BKN025
     FM311500 20008KT P6SM BKN020=



000
FTUS41 KBOX 301121
TAFORH
TAF
KORH 301121Z 3012/3112 21006KT P6SM FEW250
     FM301500 21008KT P6SM FEW045
     FM310300 21009KT P6SM BKN045
     FM310600 22010KT P6SM BKN010
     FM310800 22010KT 6SM -DZ BR BKN010=



000
FTUS41 KBOX 301121
TAFBOS
TAF
KBOS 301121Z 3012/3118 21005KT P6SM FEW250
     FM301500 19008KT P6SM FEW045
     FM310400 21009KT P6SM BKN035
     FM310600 21008KT P6SM BKN020
     FM310700 21008KT 6SM -DZ BR BKN010
     FM311300 21010KT P6SM BKN200
     FM311700 22011KT P6SM BKN025=



000
FTUS41 KBOX 301121
TAFPVD
TAF
KPVD 301121Z 3012/3112 00000KT P6SM FEW020 FEW250
     FM301400 18007KT P6SM FEW045
     FM310400 20006KT P6SM BKN035
     FM310700 21006KT 6SM -DZ BR BKN035
     FM310900 21007KT 3SM -DZ BR BKN035
     FM311000 21007KT 5SM -DZ BR BKN035=



000
FTUS41 KBOX 301121
TAFACK
TAF
KACK 301121Z 3012/3112 13005KT P6SM FEW250
     FM301700 18009KT P6SM SKC
     FM310700 21009KT 5SM -DZ BR BKN250
     FM310900 21010KT 1SM -DZ BR BKN200
     FM311100 21010KT 3/4SM -DZ BR BKN250=



000
FTUS41 KBOX 301121
TAFMHT
TAF
KMHT 301121Z 3012/3112 VRB03KT P6SM FEW020 BKN250
     FM301400 20007KT P6SM FEW045
     FM310300 20006KT P6SM BKN045
     FM310700 21006KT 6SM -DZ BR BKN020
     FM310900 21006KT 3SM -DZ BR BKN010=



000
FTUS41 KBOX 301121
TAFBAF
TAF
KBAF 301121Z 3012/3112 00000KT P6SM FEW250
     FM301500 19006KT P6SM FEW045
     FM310300 19006KT P6SM BKN045
     FM310600 20005KT P6SM BKN003
     FM310800 20005KT 5SM -DZ BR BKN003=



000
FTUS41 KBOX 301121
TAFORH
TAF
KORH 301121Z 3012/3112 21006KT P6SM FEW250
     FM301500 21008KT P6SM FEW045
     FM310300 21009KT P6SM BKN045
     FM310600 22010KT P6SM BKN010
     FM310800 22010KT 6SM -DZ BR BKN010=



000
FTUS41 KBOX 300837 AAA
TAFPVD
TAF AMD
KPVD 300837Z 3009/3106 VRB03KT P6SM FEW250
     FM301500 18006KT P6SM SCT045
     FM301800 18010G17KT P6SM SCT045
     FM310400 20006KT P6SM BKN035=



000
FTUS41 KBOX 300836 AAA
TAFMHT
TAF AMD
KMHT 300836Z 3009/3106 18005KT P6SM FEW200
     FM301600 19007KT P6SM SCT045
     FM310300 20006KT P6SM BKN045=



000
FTUS41 KBOX 300836 AAA
TAFMHT
TAF AMD
KMHT 300836Z 3009/3106 18005KT P6SM FEW200
     FM301600 19007KT P6SM SCT045
     FM310300 20006KT P6SM BKN045=



000
FTUS41 KBOX 300836 AAA
TAFBDL
TAF AMD
KBDL 300836Z 3009/3112 17005KT P6SM FEW200
     FM301500 18006KT P6SM SCT045
     FM310100 19008KT P6SM BKN045
     FM310800 20006KT 3SM BR BKN025=



000
FTUS41 KBOX 300835 AAA
TAFBOS
TAF AMD
KBOS 300835Z 3009/3112 19005KT P6SM FEW250
     FM301500 19008KT P6SM SCT045
     FM310400 21009KT P6SM BKN035
     FM310700 21008KT 6SM BR BKN010=



000
FTUS41 KBOX 300835 AAA
TAFBOS
TAF AMD
KBOS 300835Z 3009/3112 19005KT P6SM FEW250
     FM301500 19008KT P6SM SCT045
     FM310400 21009KT P6SM BKN035
     FM310700 21008KT 6SM BR BKN010=



000
FTUS41 KBOX 300520
TAFBDL
TAF
KBDL 300520Z 3006/3112 17005KT P6SM FEW200
     FM301500 18006KT P6SM SCT045
     FM310100 19008KT P6SM BKN045
     FM310800 20006KT 3SM BR BKN025=



000
FTUS41 KBOX 300520
TAFACK
TAF
KACK 300520Z 3006/3106 11005KT P6SM SKC
     FM301400 15007KT P6SM FEW200
     FM301800 18010KT P6SM FEW200=



000
FTUS41 KBOX 300520
TAFBAF
TAF
KBAF 300520Z 3006/3106 VRB03KT P6SM FEW200
     FM301500 18006KT P6SM SCT045
     FM310100 19006KT P6SM BKN045=



000
FTUS41 KBOX 300520
TAFMHT
TAF
KMHT 300520Z 3006/3106 18005KT P6SM FEW200
     FM301600 19007KT P6SM SCT045
     FM310300 20006KT P6SM BKN045=



000
FTUS41 KBOX 300520
TAFORH
TAF
KORH 300520Z 3006/3106 23006KT P6SM FEW200
     FM301500 20008KT P6SM SCT045
     FM310200 21009KT P6SM BKN045=



000
FTUS41 KBOX 300520
TAFPVD
TAF
KPVD 300520Z 3006/3106 00000KT P6SM FEW250
     FM301500 18006KT P6SM SCT045
     FM301800 18010G17KT P6SM SCT045
     FM310400 20006KT P6SM BKN035=



000
FTUS41 KBOX 300520
TAFBOS
TAF
KBOS 300520Z 3006/3112 19005KT P6SM FEW250
     FM301500 19008KT P6SM SCT045
     FM310400 21009KT P6SM BKN035
     FM310700 21008KT 6SM BR BKN010=



000
FTUS41 KBOX 300520
TAFBDL
TAF
KBDL 300520Z 3006/3112 17005KT P6SM FEW200
     FM301500 18006KT P6SM SCT045
     FM310100 19008KT P6SM BKN045
     FM310800 20006KT 3SM BR BKN025=



000
FTUS41 KBOX 300520
TAFPVD
TAF
KPVD 300520Z 3006/3106 00000KT P6SM FEW250
     FM301500 18006KT P6SM SCT045
     FM301800 18010G17KT P6SM SCT045
     FM310400 20006KT P6SM BKN035=



000
FTUS41 KBOX 300520
TAFACK
TAF
KACK 300520Z 3006/3106 11005KT P6SM SKC
     FM301400 15007KT P6SM FEW200
     FM301800 18010KT P6SM FEW200=



000
FTUS41 KBOX 300520
TAFBOS
TAF
KBOS 300520Z 3006/3112 19005KT P6SM FEW250
     FM301500 19008KT P6SM SCT045
     FM310400 21009KT P6SM BKN035
     FM310700 21008KT 6SM BR BKN010=



000
FTUS41 KBOX 300520
TAFBAF
TAF
KBAF 300520Z 3006/3106 VRB03KT P6SM FEW200
     FM301500 18006KT P6SM SCT045
     FM310100 19006KT P6SM BKN045=



000
FTUS41 KBOX 300520
TAFMHT
TAF
KMHT 300520Z 3006/3106 18005KT P6SM FEW200
     FM301600 19007KT P6SM SCT045
     FM310300 20006KT P6SM BKN045=



000
FTUS41 KBOX 300520
TAFORH
TAF
KORH 300520Z 3006/3106 23006KT P6SM FEW200
     FM301500 20008KT P6SM SCT045
     FM310200 21009KT P6SM BKN045=



000
FTUS41 KBOX 292320
TAFBOS
TAF
KBOS 292320Z 3000/3106 12007KT P6SM FEW250
     FM300200 16006KT P6SM FEW250
     FM301300 20006KT P6SM SCT200
     FM301900 17010KT P6SM FEW200
     FM310400 21009KT P6SM BKN140=



000
FTUS41 KBOX 292320
TAFORH
TAF
KORH 292320Z 3000/3024 21006KT P6SM SCT050
     FM300200 17006KT P6SM FEW250
     FM301100 21009KT P6SM SCT045=



000
FTUS41 KBOX 292320
TAFMHT
TAF
KMHT 292320Z 3000/3024 14005KT P6SM FEW250
     FM301200 20004KT P6SM SCT200
     FM301800 19008KT P6SM SCT200=



000
FTUS41 KBOX 292320
TAFORH
TAF
KORH 292320Z 3000/3024 21006KT P6SM SCT050
     FM300200 17006KT P6SM FEW250
     FM301100 21009KT P6SM SCT045=



000
FTUS41 KBOX 292320
TAFMHT
TAF
KMHT 292320Z 3000/3024 14005KT P6SM FEW250
     FM301200 20004KT P6SM SCT200
     FM301800 19008KT P6SM SCT200=



000
FTUS41 KBOX 292320
TAFACK
TAF
KACK 292320Z 3000/3024 06007KT P6SM SKC
     FM300400 10006KT P6SM FEW250
     FM301400 15006KT P6SM SCT200
     FM302200 19008KT P6SM SCT200=



000
FTUS41 KBOX 292320
TAFBAF
TAF
KBAF 292320Z 3000/3024 VRB03KT P6SM FEW250
     FM301300 18004KT P6SM SCT200
     FM301800 19008KT P6SM BKN200=



000
FTUS41 KBOX 292320
TAFPVD
TAF
KPVD 292320Z 3000/3024 15004KT P6SM FEW250
     FM300400 00000KT P6SM FEW250
     FM300900 00000KT 3SM BR SCT030
     FM301100 VRB04KT P6SM SCT200
     FM301500 17007KT P6SM SCT200=



000
FTUS41 KBOX 292320
TAFACK
TAF
KACK 292320Z 3000/3024 06007KT P6SM SKC
     FM300400 10006KT P6SM FEW250
     FM301400 15006KT P6SM SCT200
     FM302200 19008KT P6SM SCT200=



000
FTUS41 KBOX 292320
TAFBAF
TAF
KBAF 292320Z 3000/3024 VRB03KT P6SM FEW250
     FM301300 18004KT P6SM SCT200
     FM301800 19008KT P6SM BKN200=



000
FTUS41 KBOX 292320
TAFPVD
TAF
KPVD 292320Z 3000/3024 15004KT P6SM FEW250
     FM300400 00000KT P6SM FEW250
     FM300900 00000KT 3SM BR SCT030
     FM301100 VRB04KT P6SM SCT200
     FM301500 17007KT P6SM SCT200=



000
FTUS41 KBOX 292320
TAFBDL
TAF
KBDL 292320Z 3000/3106 17007KT P6SM FEW250
     FM300500 VRB03KT P6SM SCT200
     FM301700 18008KT P6SM SCT050
     FM310100 19008KT P6SM BKN110=



000
FTUS41 KBOX 292320
TAFBDL
TAF
KBDL 292320Z 3000/3106 17007KT P6SM FEW250
     FM300500 VRB03KT P6SM SCT200
     FM301700 18008KT P6SM SCT050
     FM310100 19008KT P6SM BKN110=



000
FTUS41 KBOX 292320
TAFBOS
TAF
KBOS 292320Z 3000/3106 12007KT P6SM FEW250
     FM300200 16006KT P6SM FEW250
     FM301300 20006KT P6SM SCT200
     FM301900 17010KT P6SM FEW200
     FM310400 21009KT P6SM BKN140=



    US Dept of Commerce
    National Oceanic and Atmospheric Administration
    National Weather Service
    1325 East West Highway
    Silver Spring, MD 20910
    Page Author: NWS Internet Services Team
Disclaimer
Information Quality
Credits
Glossary
Privacy Policy
Freedom of Information Act (FOIA)
About Us
Career Opportunities